<?xml version="1.0" encoding="UTF-8" standalone="no" ?>
<gpx xmlns="http://www.topografix.com/GPX/1/1" xmlns:xsi="http://www.w3.org/2001/XMLSchema-instance" xsi:schemaLocation="http://www.topografix.com/GPX/1/1 http://www.topografix.com/GPX/1/1/gpx.xsd" version="1.1" creator="VisuGPX - https://www.visugpx.com">
  <metadata>
    <name>83-V-Carces</name>
    <desc><![CDATA[83-V-Carces : chapelle St Vincent]]></desc>
  </metadata>
  <trk>
    <name><![CDATA[2019-03-8-V-Carces-Chapelle St Vincent]]></name>
    <trkseg>
      <trkpt lat="43.46152" lon="6.16973">
        <ele>141.5</ele>
        <time>2019-03-08T13:00:32Z</time>
      </trkpt>
      <trkpt lat="43.46152" lon="6.16973">
        <ele>141.5</ele>
        <time>2019-03-08T13:00:33Z</time>
      </trkpt>
      <trkpt lat="43.46159" lon="6.16965">
        <ele>140.9</ele>
        <time>2019-03-08T13:04:49Z</time>
      </trkpt>
      <trkpt lat="43.46151" lon="6.1697">
        <ele>141</ele>
        <time>2019-03-08T13:05:50Z</time>
      </trkpt>
      <trkpt lat="43.46144" lon="6.16962">
        <ele>141.5</ele>
        <time>2019-03-08T13:08:13Z</time>
      </trkpt>
      <trkpt lat="43.46135" lon="6.16958">
        <ele>141.4</ele>
        <time>2019-03-08T13:08:21Z</time>
      </trkpt>
      <trkpt lat="43.46127" lon="6.16951">
        <ele>141.8</ele>
        <time>2019-03-08T13:08:30Z</time>
      </trkpt>
      <trkpt lat="43.46119" lon="6.16945">
        <ele>141.6</ele>
        <time>2019-03-08T13:08:39Z</time>
      </trkpt>
      <trkpt lat="43.46109" lon="6.16938">
        <ele>141.9</ele>
        <time>2019-03-08T13:08:49Z</time>
      </trkpt>
      <trkpt lat="43.46101" lon="6.16932">
        <ele>141.9</ele>
        <time>2019-03-08T13:08:58Z</time>
      </trkpt>
      <trkpt lat="43.46092" lon="6.16925">
        <ele>142.2</ele>
        <time>2019-03-08T13:09:08Z</time>
      </trkpt>
      <trkpt lat="43.46084" lon="6.16921">
        <ele>142.4</ele>
        <time>2019-03-08T13:09:18Z</time>
      </trkpt>
      <trkpt lat="43.46075" lon="6.16915">
        <ele>141.8</ele>
        <time>2019-03-08T13:09:27Z</time>
      </trkpt>
      <trkpt lat="43.46066" lon="6.1691">
        <ele>142</ele>
        <time>2019-03-08T13:09:36Z</time>
      </trkpt>
      <trkpt lat="43.46059" lon="6.16899">
        <ele>141.6</ele>
        <time>2019-03-08T13:09:45Z</time>
      </trkpt>
      <trkpt lat="43.46055" lon="6.16889">
        <ele>142.1</ele>
        <time>2019-03-08T13:09:53Z</time>
      </trkpt>
      <trkpt lat="43.46048" lon="6.16878">
        <ele>142.1</ele>
        <time>2019-03-08T13:10:02Z</time>
      </trkpt>
      <trkpt lat="43.46042" lon="6.16868">
        <ele>142.4</ele>
        <time>2019-03-08T13:10:10Z</time>
      </trkpt>
      <trkpt lat="43.46035" lon="6.16858">
        <ele>142.5</ele>
        <time>2019-03-08T13:10:19Z</time>
      </trkpt>
      <trkpt lat="43.4603" lon="6.16846">
        <ele>142.7</ele>
        <time>2019-03-08T13:10:26Z</time>
      </trkpt>
      <trkpt lat="43.46029" lon="6.16834">
        <ele>142.8</ele>
        <time>2019-03-08T13:10:33Z</time>
      </trkpt>
      <trkpt lat="43.46022" lon="6.16825">
        <ele>144.1</ele>
        <time>2019-03-08T13:10:42Z</time>
      </trkpt>
      <trkpt lat="43.46017" lon="6.16814">
        <ele>144.6</ele>
        <time>2019-03-08T13:10:50Z</time>
      </trkpt>
      <trkpt lat="43.4601" lon="6.16806">
        <ele>145.6</ele>
        <time>2019-03-08T13:10:59Z</time>
      </trkpt>
      <trkpt lat="43.46002" lon="6.16799">
        <ele>147</ele>
        <time>2019-03-08T13:11:10Z</time>
      </trkpt>
      <trkpt lat="43.45998" lon="6.16788">
        <ele>147.9</ele>
        <time>2019-03-08T13:11:19Z</time>
      </trkpt>
      <trkpt lat="43.4599" lon="6.1678">
        <ele>148.7</ele>
        <time>2019-03-08T13:11:28Z</time>
      </trkpt>
      <trkpt lat="43.45981" lon="6.16774">
        <ele>149.3</ele>
        <time>2019-03-08T13:11:36Z</time>
      </trkpt>
      <trkpt lat="43.45972" lon="6.16773">
        <ele>150.1</ele>
        <time>2019-03-08T13:11:45Z</time>
      </trkpt>
      <trkpt lat="43.45962" lon="6.16769">
        <ele>150.8</ele>
        <time>2019-03-08T13:11:55Z</time>
      </trkpt>
      <trkpt lat="43.45953" lon="6.16766">
        <ele>150.6</ele>
        <time>2019-03-08T13:12:02Z</time>
      </trkpt>
      <trkpt lat="43.45944" lon="6.16761">
        <ele>151.3</ele>
        <time>2019-03-08T13:12:11Z</time>
      </trkpt>
      <trkpt lat="43.45935" lon="6.16758">
        <ele>151.4</ele>
        <time>2019-03-08T13:12:19Z</time>
      </trkpt>
      <trkpt lat="43.45925" lon="6.16756">
        <ele>151.6</ele>
        <time>2019-03-08T13:12:27Z</time>
      </trkpt>
      <trkpt lat="43.45915" lon="6.16752">
        <ele>152</ele>
        <time>2019-03-08T13:12:38Z</time>
      </trkpt>
      <trkpt lat="43.45906" lon="6.16749">
        <ele>152</ele>
        <time>2019-03-08T13:12:46Z</time>
      </trkpt>
      <trkpt lat="43.45896" lon="6.16745">
        <ele>152.2</ele>
        <time>2019-03-08T13:12:55Z</time>
      </trkpt>
      <trkpt lat="43.45888" lon="6.16737">
        <ele>153</ele>
        <time>2019-03-08T13:13:04Z</time>
      </trkpt>
      <trkpt lat="43.45882" lon="6.16726">
        <ele>153.8</ele>
        <time>2019-03-08T13:13:12Z</time>
      </trkpt>
      <trkpt lat="43.45876" lon="6.16716">
        <ele>154.4</ele>
        <time>2019-03-08T13:13:21Z</time>
      </trkpt>
      <trkpt lat="43.4587" lon="6.16706">
        <ele>154.9</ele>
        <time>2019-03-08T13:13:30Z</time>
      </trkpt>
      <trkpt lat="43.45864" lon="6.16696">
        <ele>156</ele>
        <time>2019-03-08T13:13:39Z</time>
      </trkpt>
      <trkpt lat="43.45856" lon="6.16688">
        <ele>156.6</ele>
        <time>2019-03-08T13:13:49Z</time>
      </trkpt>
      <trkpt lat="43.45848" lon="6.1668">
        <ele>157.4</ele>
        <time>2019-03-08T13:13:59Z</time>
      </trkpt>
      <trkpt lat="43.45841" lon="6.16673">
        <ele>158.1</ele>
        <time>2019-03-08T13:14:07Z</time>
      </trkpt>
      <trkpt lat="43.45833" lon="6.16665">
        <ele>159.5</ele>
        <time>2019-03-08T13:14:17Z</time>
      </trkpt>
      <trkpt lat="43.45824" lon="6.16661">
        <ele>160.6</ele>
        <time>2019-03-08T13:14:26Z</time>
      </trkpt>
      <trkpt lat="43.45814" lon="6.16657">
        <ele>162</ele>
        <time>2019-03-08T13:14:36Z</time>
      </trkpt>
      <trkpt lat="43.45804" lon="6.16657">
        <ele>163.4</ele>
        <time>2019-03-08T13:14:46Z</time>
      </trkpt>
      <trkpt lat="43.45796" lon="6.1665">
        <ele>164.6</ele>
        <time>2019-03-08T13:14:57Z</time>
      </trkpt>
      <trkpt lat="43.45787" lon="6.16645">
        <ele>165.3</ele>
        <time>2019-03-08T13:15:06Z</time>
      </trkpt>
      <trkpt lat="43.45778" lon="6.16641">
        <ele>166.1</ele>
        <time>2019-03-08T13:15:16Z</time>
      </trkpt>
      <trkpt lat="43.45768" lon="6.16642">
        <ele>165.9</ele>
        <time>2019-03-08T13:15:24Z</time>
      </trkpt>
      <trkpt lat="43.45758" lon="6.16641">
        <ele>166.1</ele>
        <time>2019-03-08T13:15:34Z</time>
      </trkpt>
      <trkpt lat="43.45749" lon="6.16638">
        <ele>166.3</ele>
        <time>2019-03-08T13:15:43Z</time>
      </trkpt>
      <trkpt lat="43.45739" lon="6.16633">
        <ele>167</ele>
        <time>2019-03-08T13:15:53Z</time>
      </trkpt>
      <trkpt lat="43.45731" lon="6.16631">
        <ele>168</ele>
        <time>2019-03-08T13:16:02Z</time>
      </trkpt>
      <trkpt lat="43.45721" lon="6.16628">
        <ele>168</ele>
        <time>2019-03-08T13:16:12Z</time>
      </trkpt>
      <trkpt lat="43.45712" lon="6.16624">
        <ele>168.8</ele>
        <time>2019-03-08T13:16:20Z</time>
      </trkpt>
      <trkpt lat="43.45703" lon="6.16625">
        <ele>169.8</ele>
        <time>2019-03-08T13:16:28Z</time>
      </trkpt>
      <trkpt lat="43.45693" lon="6.16624">
        <ele>170.2</ele>
        <time>2019-03-08T13:16:38Z</time>
      </trkpt>
      <trkpt lat="43.45684" lon="6.16622">
        <ele>170.5</ele>
        <time>2019-03-08T13:16:47Z</time>
      </trkpt>
      <trkpt lat="43.45675" lon="6.16624">
        <ele>171.5</ele>
        <time>2019-03-08T13:16:55Z</time>
      </trkpt>
      <trkpt lat="43.45666" lon="6.16624">
        <ele>172.1</ele>
        <time>2019-03-08T13:17:04Z</time>
      </trkpt>
      <trkpt lat="43.45656" lon="6.16623">
        <ele>172.6</ele>
        <time>2019-03-08T13:17:15Z</time>
      </trkpt>
      <trkpt lat="43.45647" lon="6.16623">
        <ele>173.3</ele>
        <time>2019-03-08T13:17:23Z</time>
      </trkpt>
      <trkpt lat="43.45637" lon="6.16622">
        <ele>173.7</ele>
        <time>2019-03-08T13:17:33Z</time>
      </trkpt>
      <trkpt lat="43.45626" lon="6.16621">
        <ele>174.1</ele>
        <time>2019-03-08T13:17:44Z</time>
      </trkpt>
      <trkpt lat="43.45616" lon="6.16622">
        <ele>174.6</ele>
        <time>2019-03-08T13:17:53Z</time>
      </trkpt>
      <trkpt lat="43.45607" lon="6.16623">
        <ele>175.2</ele>
        <time>2019-03-08T13:18:01Z</time>
      </trkpt>
      <trkpt lat="43.45597" lon="6.16623">
        <ele>175.7</ele>
        <time>2019-03-08T13:18:09Z</time>
      </trkpt>
      <trkpt lat="43.45587" lon="6.16621">
        <ele>176.4</ele>
        <time>2019-03-08T13:18:16Z</time>
      </trkpt>
      <trkpt lat="43.45578" lon="6.16624">
        <ele>177.3</ele>
        <time>2019-03-08T13:18:25Z</time>
      </trkpt>
      <trkpt lat="43.45569" lon="6.16627">
        <ele>178.7</ele>
        <time>2019-03-08T13:18:38Z</time>
      </trkpt>
      <trkpt lat="43.45559" lon="6.16627">
        <ele>179</ele>
        <time>2019-03-08T13:18:47Z</time>
      </trkpt>
      <trkpt lat="43.45549" lon="6.16628">
        <ele>179.4</ele>
        <time>2019-03-08T13:18:57Z</time>
      </trkpt>
      <trkpt lat="43.45539" lon="6.16633">
        <ele>179.9</ele>
        <time>2019-03-08T13:19:07Z</time>
      </trkpt>
      <trkpt lat="43.45528" lon="6.16632">
        <ele>179.8</ele>
        <time>2019-03-08T13:19:15Z</time>
      </trkpt>
      <trkpt lat="43.45519" lon="6.1663">
        <ele>179</ele>
        <time>2019-03-08T13:19:24Z</time>
      </trkpt>
      <trkpt lat="43.45514" lon="6.16619">
        <ele>178.4</ele>
        <time>2019-03-08T13:19:31Z</time>
      </trkpt>
      <trkpt lat="43.4551" lon="6.16606">
        <ele>178.2</ele>
        <time>2019-03-08T13:19:39Z</time>
      </trkpt>
      <trkpt lat="43.45506" lon="6.16594">
        <ele>178.5</ele>
        <time>2019-03-08T13:19:47Z</time>
      </trkpt>
      <trkpt lat="43.45502" lon="6.16582">
        <ele>179.2</ele>
        <time>2019-03-08T13:19:55Z</time>
      </trkpt>
      <trkpt lat="43.45498" lon="6.16571">
        <ele>179.7</ele>
        <time>2019-03-08T13:20:03Z</time>
      </trkpt>
      <trkpt lat="43.45489" lon="6.16564">
        <ele>180</ele>
        <time>2019-03-08T13:20:14Z</time>
      </trkpt>
      <trkpt lat="43.4548" lon="6.16565">
        <ele>180.8</ele>
        <time>2019-03-08T13:20:26Z</time>
      </trkpt>
      <trkpt lat="43.4547" lon="6.16565">
        <ele>182.2</ele>
        <time>2019-03-08T13:20:38Z</time>
      </trkpt>
      <trkpt lat="43.4546" lon="6.16565">
        <ele>183.6</ele>
        <time>2019-03-08T13:20:48Z</time>
      </trkpt>
      <trkpt lat="43.45452" lon="6.16558">
        <ele>185.1</ele>
        <time>2019-03-08T13:21:01Z</time>
      </trkpt>
      <trkpt lat="43.45448" lon="6.16546">
        <ele>186.6</ele>
        <time>2019-03-08T13:21:12Z</time>
      </trkpt>
      <trkpt lat="43.45447" lon="6.16533">
        <ele>188.8</ele>
        <time>2019-03-08T13:21:24Z</time>
      </trkpt>
      <trkpt lat="43.45441" lon="6.16522">
        <ele>189.8</ele>
        <time>2019-03-08T13:21:33Z</time>
      </trkpt>
      <trkpt lat="43.45434" lon="6.16513">
        <ele>191.1</ele>
        <time>2019-03-08T13:21:42Z</time>
      </trkpt>
      <trkpt lat="43.45431" lon="6.16502">
        <ele>192.1</ele>
        <time>2019-03-08T13:21:51Z</time>
      </trkpt>
      <trkpt lat="43.45427" lon="6.1649">
        <ele>193</ele>
        <time>2019-03-08T13:22:01Z</time>
      </trkpt>
      <trkpt lat="43.45421" lon="6.1648">
        <ele>194.7</ele>
        <time>2019-03-08T13:22:12Z</time>
      </trkpt>
      <trkpt lat="43.45415" lon="6.16471">
        <ele>195.7</ele>
        <time>2019-03-08T13:22:21Z</time>
      </trkpt>
      <trkpt lat="43.45408" lon="6.1646">
        <ele>197</ele>
        <time>2019-03-08T13:22:32Z</time>
      </trkpt>
      <trkpt lat="43.45404" lon="6.16448">
        <ele>198.1</ele>
        <time>2019-03-08T13:22:42Z</time>
      </trkpt>
      <trkpt lat="43.454" lon="6.16437">
        <ele>199.1</ele>
        <time>2019-03-08T13:22:53Z</time>
      </trkpt>
      <trkpt lat="43.45393" lon="6.16428">
        <ele>200.7</ele>
        <time>2019-03-08T13:23:06Z</time>
      </trkpt>
      <trkpt lat="43.45388" lon="6.16418">
        <ele>202.5</ele>
        <time>2019-03-08T13:23:19Z</time>
      </trkpt>
      <trkpt lat="43.45381" lon="6.16408">
        <ele>204.4</ele>
        <time>2019-03-08T13:23:31Z</time>
      </trkpt>
      <trkpt lat="43.45376" lon="6.16397">
        <ele>205.7</ele>
        <time>2019-03-08T13:23:42Z</time>
      </trkpt>
      <trkpt lat="43.45367" lon="6.16392">
        <ele>207.5</ele>
        <time>2019-03-08T13:23:54Z</time>
      </trkpt>
      <trkpt lat="43.45359" lon="6.16385">
        <ele>209</ele>
        <time>2019-03-08T13:24:06Z</time>
      </trkpt>
      <trkpt lat="43.45351" lon="6.16377">
        <ele>210.5</ele>
        <time>2019-03-08T13:24:16Z</time>
      </trkpt>
      <trkpt lat="43.45346" lon="6.16367">
        <ele>211.7</ele>
        <time>2019-03-08T13:24:26Z</time>
      </trkpt>
      <trkpt lat="43.45338" lon="6.16361">
        <ele>213</ele>
        <time>2019-03-08T13:24:36Z</time>
      </trkpt>
      <trkpt lat="43.45332" lon="6.1635">
        <ele>214.2</ele>
        <time>2019-03-08T13:24:47Z</time>
      </trkpt>
      <trkpt lat="43.45323" lon="6.16346">
        <ele>215.3</ele>
        <time>2019-03-08T13:24:56Z</time>
      </trkpt>
      <trkpt lat="43.45315" lon="6.16335">
        <ele>217</ele>
        <time>2019-03-08T13:25:09Z</time>
      </trkpt>
      <trkpt lat="43.45308" lon="6.16327">
        <ele>218.3</ele>
        <time>2019-03-08T13:25:19Z</time>
      </trkpt>
      <trkpt lat="43.45301" lon="6.16318">
        <ele>219.5</ele>
        <time>2019-03-08T13:25:28Z</time>
      </trkpt>
      <trkpt lat="43.45295" lon="6.16307">
        <ele>220.3</ele>
        <time>2019-03-08T13:25:39Z</time>
      </trkpt>
      <trkpt lat="43.45289" lon="6.16298">
        <ele>221.2</ele>
        <time>2019-03-08T13:25:49Z</time>
      </trkpt>
      <trkpt lat="43.45284" lon="6.16287">
        <ele>222.3</ele>
        <time>2019-03-08T13:25:59Z</time>
      </trkpt>
      <trkpt lat="43.45278" lon="6.16277">
        <ele>223.7</ele>
        <time>2019-03-08T13:26:10Z</time>
      </trkpt>
      <trkpt lat="43.45272" lon="6.16267">
        <ele>224.6</ele>
        <time>2019-03-08T13:26:19Z</time>
      </trkpt>
      <trkpt lat="43.45264" lon="6.16256">
        <ele>225.4</ele>
        <time>2019-03-08T13:26:30Z</time>
      </trkpt>
      <trkpt lat="43.45257" lon="6.16247">
        <ele>226</ele>
        <time>2019-03-08T13:26:39Z</time>
      </trkpt>
      <trkpt lat="43.4525" lon="6.16239">
        <ele>225.5</ele>
        <time>2019-03-08T13:26:54Z</time>
      </trkpt>
      <trkpt lat="43.45244" lon="6.16229">
        <ele>226.9</ele>
        <time>2019-03-08T13:27:07Z</time>
      </trkpt>
      <trkpt lat="43.45239" lon="6.16219">
        <ele>228</ele>
        <time>2019-03-08T13:27:20Z</time>
      </trkpt>
      <trkpt lat="43.45237" lon="6.16206">
        <ele>229.8</ele>
        <time>2019-03-08T13:27:32Z</time>
      </trkpt>
      <trkpt lat="43.45233" lon="6.16195">
        <ele>231.7</ele>
        <time>2019-03-08T13:27:44Z</time>
      </trkpt>
      <trkpt lat="43.4523" lon="6.16182">
        <ele>233</ele>
        <time>2019-03-08T13:27:54Z</time>
      </trkpt>
      <trkpt lat="43.45225" lon="6.16193">
        <ele>237.7</ele>
        <time>2019-03-08T13:28:32Z</time>
      </trkpt>
      <trkpt lat="43.45216" lon="6.16192">
        <ele>238.5</ele>
        <time>2019-03-08T13:31:23Z</time>
      </trkpt>
      <trkpt lat="43.45222" lon="6.16182">
        <ele>237.7</ele>
        <time>2019-03-08T13:35:13Z</time>
      </trkpt>
      <trkpt lat="43.45224" lon="6.1617">
        <ele>236.6</ele>
        <time>2019-03-08T13:35:25Z</time>
      </trkpt>
      <trkpt lat="43.45222" lon="6.16157">
        <ele>236.5</ele>
        <time>2019-03-08T13:35:44Z</time>
      </trkpt>
      <trkpt lat="43.4522" lon="6.16145">
        <ele>237.8</ele>
        <time>2019-03-08T13:35:58Z</time>
      </trkpt>
      <trkpt lat="43.45215" lon="6.16133">
        <ele>239.2</ele>
        <time>2019-03-08T13:36:10Z</time>
      </trkpt>
      <trkpt lat="43.4521" lon="6.16122">
        <ele>240.2</ele>
        <time>2019-03-08T13:36:22Z</time>
      </trkpt>
      <trkpt lat="43.45205" lon="6.16111">
        <ele>241.7</ele>
        <time>2019-03-08T13:36:32Z</time>
      </trkpt>
      <trkpt lat="43.45201" lon="6.16099">
        <ele>242.9</ele>
        <time>2019-03-08T13:36:43Z</time>
      </trkpt>
      <trkpt lat="43.45199" lon="6.16086">
        <ele>244.8</ele>
        <time>2019-03-08T13:36:54Z</time>
      </trkpt>
      <trkpt lat="43.45192" lon="6.16075">
        <ele>246.8</ele>
        <time>2019-03-08T13:37:09Z</time>
      </trkpt>
      <trkpt lat="43.45193" lon="6.16062">
        <ele>247.9</ele>
        <time>2019-03-08T13:37:20Z</time>
      </trkpt>
      <trkpt lat="43.45187" lon="6.16051">
        <ele>249.4</ele>
        <time>2019-03-08T13:37:33Z</time>
      </trkpt>
      <trkpt lat="43.45182" lon="6.1604">
        <ele>250.6</ele>
        <time>2019-03-08T13:37:45Z</time>
      </trkpt>
      <trkpt lat="43.45178" lon="6.16028">
        <ele>252.4</ele>
        <time>2019-03-08T13:37:57Z</time>
      </trkpt>
      <trkpt lat="43.45176" lon="6.16016">
        <ele>253.3</ele>
        <time>2019-03-08T13:38:11Z</time>
      </trkpt>
      <trkpt lat="43.45172" lon="6.16004">
        <ele>254.8</ele>
        <time>2019-03-08T13:38:24Z</time>
      </trkpt>
      <trkpt lat="43.45171" lon="6.15991">
        <ele>256.9</ele>
        <time>2019-03-08T13:38:41Z</time>
      </trkpt>
      <trkpt lat="43.45165" lon="6.15982">
        <ele>258.2</ele>
        <time>2019-03-08T13:38:50Z</time>
      </trkpt>
      <trkpt lat="43.4516" lon="6.1597">
        <ele>258.9</ele>
        <time>2019-03-08T13:38:59Z</time>
      </trkpt>
      <trkpt lat="43.45153" lon="6.15961">
        <ele>260.3</ele>
        <time>2019-03-08T13:39:08Z</time>
      </trkpt>
      <trkpt lat="43.45149" lon="6.1595">
        <ele>262.1</ele>
        <time>2019-03-08T13:39:19Z</time>
      </trkpt>
      <trkpt lat="43.45146" lon="6.15938">
        <ele>262.9</ele>
        <time>2019-03-08T13:39:30Z</time>
      </trkpt>
      <trkpt lat="43.45142" lon="6.15926">
        <ele>263.4</ele>
        <time>2019-03-08T13:39:39Z</time>
      </trkpt>
      <trkpt lat="43.45137" lon="6.15915">
        <ele>264.3</ele>
        <time>2019-03-08T13:39:51Z</time>
      </trkpt>
      <trkpt lat="43.45134" lon="6.15902">
        <ele>265.5</ele>
        <time>2019-03-08T13:40:02Z</time>
      </trkpt>
      <trkpt lat="43.45132" lon="6.1589">
        <ele>266.2</ele>
        <time>2019-03-08T13:40:12Z</time>
      </trkpt>
      <trkpt lat="43.4513" lon="6.15878">
        <ele>267</ele>
        <time>2019-03-08T13:40:23Z</time>
      </trkpt>
      <trkpt lat="43.45126" lon="6.15865">
        <ele>267.9</ele>
        <time>2019-03-08T13:40:36Z</time>
      </trkpt>
      <trkpt lat="43.45124" lon="6.15853">
        <ele>269.2</ele>
        <time>2019-03-08T13:40:45Z</time>
      </trkpt>
      <trkpt lat="43.45121" lon="6.15841">
        <ele>270.1</ele>
        <time>2019-03-08T13:40:55Z</time>
      </trkpt>
      <trkpt lat="43.45115" lon="6.1583">
        <ele>270.6</ele>
        <time>2019-03-08T13:41:04Z</time>
      </trkpt>
      <trkpt lat="43.45111" lon="6.15818">
        <ele>272.2</ele>
        <time>2019-03-08T13:41:16Z</time>
      </trkpt>
      <trkpt lat="43.4511" lon="6.15805">
        <ele>273.1</ele>
        <time>2019-03-08T13:41:27Z</time>
      </trkpt>
      <trkpt lat="43.45104" lon="6.15795">
        <ele>273.7</ele>
        <time>2019-03-08T13:41:39Z</time>
      </trkpt>
      <trkpt lat="43.451" lon="6.15784">
        <ele>275.7</ele>
        <time>2019-03-08T13:41:50Z</time>
      </trkpt>
      <trkpt lat="43.45093" lon="6.15774">
        <ele>276.8</ele>
        <time>2019-03-08T13:42:01Z</time>
      </trkpt>
      <trkpt lat="43.45087" lon="6.15765">
        <ele>277.6</ele>
        <time>2019-03-08T13:42:11Z</time>
      </trkpt>
      <trkpt lat="43.45081" lon="6.15754">
        <ele>278.9</ele>
        <time>2019-03-08T13:42:20Z</time>
      </trkpt>
      <trkpt lat="43.45077" lon="6.15743">
        <ele>280</ele>
        <time>2019-03-08T13:42:30Z</time>
      </trkpt>
      <trkpt lat="43.4507" lon="6.15733">
        <ele>280.7</ele>
        <time>2019-03-08T13:42:39Z</time>
      </trkpt>
      <trkpt lat="43.45064" lon="6.15725">
        <ele>281.7</ele>
        <time>2019-03-08T13:42:47Z</time>
      </trkpt>
      <trkpt lat="43.45056" lon="6.15717">
        <ele>282.6</ele>
        <time>2019-03-08T13:42:56Z</time>
      </trkpt>
      <trkpt lat="43.45052" lon="6.15705">
        <ele>282.9</ele>
        <time>2019-03-08T13:43:05Z</time>
      </trkpt>
      <trkpt lat="43.45049" lon="6.15693">
        <ele>283</ele>
        <time>2019-03-08T13:43:13Z</time>
      </trkpt>
      <trkpt lat="43.45045" lon="6.15681">
        <ele>283.2</ele>
        <time>2019-03-08T13:43:23Z</time>
      </trkpt>
      <trkpt lat="43.45041" lon="6.15668">
        <ele>283.6</ele>
        <time>2019-03-08T13:43:32Z</time>
      </trkpt>
      <trkpt lat="43.45037" lon="6.15657">
        <ele>283.8</ele>
        <time>2019-03-08T13:43:41Z</time>
      </trkpt>
      <trkpt lat="43.45031" lon="6.15645">
        <ele>284.1</ele>
        <time>2019-03-08T13:43:52Z</time>
      </trkpt>
      <trkpt lat="43.45027" lon="6.15633">
        <ele>284</ele>
        <time>2019-03-08T13:44:00Z</time>
      </trkpt>
      <trkpt lat="43.45023" lon="6.1562">
        <ele>284.2</ele>
        <time>2019-03-08T13:44:08Z</time>
      </trkpt>
      <trkpt lat="43.45018" lon="6.15608">
        <ele>284.4</ele>
        <time>2019-03-08T13:44:16Z</time>
      </trkpt>
      <trkpt lat="43.45013" lon="6.15597">
        <ele>284.3</ele>
        <time>2019-03-08T13:44:25Z</time>
      </trkpt>
      <trkpt lat="43.45007" lon="6.15587">
        <ele>284.9</ele>
        <time>2019-03-08T13:44:34Z</time>
      </trkpt>
      <trkpt lat="43.45" lon="6.15577">
        <ele>284.1</ele>
        <time>2019-03-08T13:44:41Z</time>
      </trkpt>
      <trkpt lat="43.44992" lon="6.15568">
        <ele>283.9</ele>
        <time>2019-03-08T13:44:50Z</time>
      </trkpt>
      <trkpt lat="43.44984" lon="6.1556">
        <ele>283.5</ele>
        <time>2019-03-08T13:44:59Z</time>
      </trkpt>
      <trkpt lat="43.44978" lon="6.1555">
        <ele>283.4</ele>
        <time>2019-03-08T13:45:08Z</time>
      </trkpt>
      <trkpt lat="43.4497" lon="6.15541">
        <ele>283.3</ele>
        <time>2019-03-08T13:45:16Z</time>
      </trkpt>
      <trkpt lat="43.44963" lon="6.15533">
        <ele>283.4</ele>
        <time>2019-03-08T13:45:24Z</time>
      </trkpt>
      <trkpt lat="43.44957" lon="6.15523">
        <ele>283.7</ele>
        <time>2019-03-08T13:45:33Z</time>
      </trkpt>
      <trkpt lat="43.44951" lon="6.15514">
        <ele>284.3</ele>
        <time>2019-03-08T13:45:41Z</time>
      </trkpt>
      <trkpt lat="43.44944" lon="6.15506">
        <ele>284.8</ele>
        <time>2019-03-08T13:45:50Z</time>
      </trkpt>
      <trkpt lat="43.44936" lon="6.15498">
        <ele>285.6</ele>
        <time>2019-03-08T13:45:59Z</time>
      </trkpt>
      <trkpt lat="43.44927" lon="6.15495">
        <ele>285.7</ele>
        <time>2019-03-08T13:46:08Z</time>
      </trkpt>
      <trkpt lat="43.44919" lon="6.15488">
        <ele>286.8</ele>
        <time>2019-03-08T13:46:16Z</time>
      </trkpt>
      <trkpt lat="43.4491" lon="6.15485">
        <ele>287</ele>
        <time>2019-03-08T13:46:25Z</time>
      </trkpt>
      <trkpt lat="43.44902" lon="6.15478">
        <ele>287.6</ele>
        <time>2019-03-08T13:46:35Z</time>
      </trkpt>
      <trkpt lat="43.44895" lon="6.15469">
        <ele>287.8</ele>
        <time>2019-03-08T13:46:45Z</time>
      </trkpt>
      <trkpt lat="43.44888" lon="6.1546">
        <ele>287.4</ele>
        <time>2019-03-08T13:46:53Z</time>
      </trkpt>
      <trkpt lat="43.44885" lon="6.15448">
        <ele>286.1</ele>
        <time>2019-03-08T13:47:03Z</time>
      </trkpt>
      <trkpt lat="43.44879" lon="6.15437">
        <ele>285.5</ele>
        <time>2019-03-08T13:47:12Z</time>
      </trkpt>
      <trkpt lat="43.44873" lon="6.15427">
        <ele>284.7</ele>
        <time>2019-03-08T13:47:19Z</time>
      </trkpt>
      <trkpt lat="43.44866" lon="6.15417">
        <ele>284.6</ele>
        <time>2019-03-08T13:47:26Z</time>
      </trkpt>
      <trkpt lat="43.44862" lon="6.15405">
        <ele>283.3</ele>
        <time>2019-03-08T13:47:38Z</time>
      </trkpt>
      <trkpt lat="43.44857" lon="6.15394">
        <ele>283</ele>
        <time>2019-03-08T13:47:46Z</time>
      </trkpt>
      <trkpt lat="43.44852" lon="6.15383">
        <ele>282.7</ele>
        <time>2019-03-08T13:47:56Z</time>
      </trkpt>
      <trkpt lat="43.44849" lon="6.1537">
        <ele>282.3</ele>
        <time>2019-03-08T13:48:05Z</time>
      </trkpt>
      <trkpt lat="43.44846" lon="6.15357">
        <ele>281.4</ele>
        <time>2019-03-08T13:48:14Z</time>
      </trkpt>
      <trkpt lat="43.44843" lon="6.15346">
        <ele>280.4</ele>
        <time>2019-03-08T13:48:24Z</time>
      </trkpt>
      <trkpt lat="43.44838" lon="6.15334">
        <ele>279.6</ele>
        <time>2019-03-08T13:48:35Z</time>
      </trkpt>
      <trkpt lat="43.44838" lon="6.15321">
        <ele>278.8</ele>
        <time>2019-03-08T13:48:44Z</time>
      </trkpt>
      <trkpt lat="43.44834" lon="6.15308">
        <ele>278.6</ele>
        <time>2019-03-08T13:48:53Z</time>
      </trkpt>
      <trkpt lat="43.44831" lon="6.15295">
        <ele>278</ele>
        <time>2019-03-08T13:49:04Z</time>
      </trkpt>
      <trkpt lat="43.44824" lon="6.15285">
        <ele>277.7</ele>
        <time>2019-03-08T13:49:13Z</time>
      </trkpt>
      <trkpt lat="43.44819" lon="6.15273">
        <ele>277.1</ele>
        <time>2019-03-08T13:49:23Z</time>
      </trkpt>
      <trkpt lat="43.44812" lon="6.15265">
        <ele>276.8</ele>
        <time>2019-03-08T13:49:31Z</time>
      </trkpt>
      <trkpt lat="43.44808" lon="6.15254">
        <ele>276.8</ele>
        <time>2019-03-08T13:49:41Z</time>
      </trkpt>
      <trkpt lat="43.44802" lon="6.15242">
        <ele>276.6</ele>
        <time>2019-03-08T13:49:49Z</time>
      </trkpt>
      <trkpt lat="43.44799" lon="6.15229">
        <ele>276.1</ele>
        <time>2019-03-08T13:50:01Z</time>
      </trkpt>
      <trkpt lat="43.44796" lon="6.15217">
        <ele>275.9</ele>
        <time>2019-03-08T13:50:09Z</time>
      </trkpt>
      <trkpt lat="43.44793" lon="6.15206">
        <ele>275.2</ele>
        <time>2019-03-08T13:50:19Z</time>
      </trkpt>
      <trkpt lat="43.44789" lon="6.15194">
        <ele>274.8</ele>
        <time>2019-03-08T13:50:28Z</time>
      </trkpt>
      <trkpt lat="43.44785" lon="6.15182">
        <ele>274.2</ele>
        <time>2019-03-08T13:50:38Z</time>
      </trkpt>
      <trkpt lat="43.44779" lon="6.15171">
        <ele>274.4</ele>
        <time>2019-03-08T13:50:47Z</time>
      </trkpt>
      <trkpt lat="43.44773" lon="6.15161">
        <ele>273.9</ele>
        <time>2019-03-08T13:50:55Z</time>
      </trkpt>
      <trkpt lat="43.44769" lon="6.1515">
        <ele>273.6</ele>
        <time>2019-03-08T13:51:03Z</time>
      </trkpt>
      <trkpt lat="43.44763" lon="6.15139">
        <ele>273.4</ele>
        <time>2019-03-08T13:51:12Z</time>
      </trkpt>
      <trkpt lat="43.44756" lon="6.15129">
        <ele>273.5</ele>
        <time>2019-03-08T13:51:19Z</time>
      </trkpt>
      <trkpt lat="43.44751" lon="6.15118">
        <ele>273.1</ele>
        <time>2019-03-08T13:51:27Z</time>
      </trkpt>
      <trkpt lat="43.44746" lon="6.15107">
        <ele>272.8</ele>
        <time>2019-03-08T13:51:36Z</time>
      </trkpt>
      <trkpt lat="43.4474" lon="6.15096">
        <ele>272.5</ele>
        <time>2019-03-08T13:51:46Z</time>
      </trkpt>
      <trkpt lat="43.44734" lon="6.15085">
        <ele>272.9</ele>
        <time>2019-03-08T13:51:55Z</time>
      </trkpt>
      <trkpt lat="43.4473" lon="6.15073">
        <ele>272.7</ele>
        <time>2019-03-08T13:52:03Z</time>
      </trkpt>
      <trkpt lat="43.44725" lon="6.15061">
        <ele>272.3</ele>
        <time>2019-03-08T13:52:11Z</time>
      </trkpt>
      <trkpt lat="43.44718" lon="6.15053">
        <ele>272.1</ele>
        <time>2019-03-08T13:52:18Z</time>
      </trkpt>
      <trkpt lat="43.44713" lon="6.15042">
        <ele>272</ele>
        <time>2019-03-08T13:52:28Z</time>
      </trkpt>
      <trkpt lat="43.44707" lon="6.15031">
        <ele>272.4</ele>
        <time>2019-03-08T13:52:37Z</time>
      </trkpt>
      <trkpt lat="43.44704" lon="6.15017">
        <ele>272.3</ele>
        <time>2019-03-08T13:52:47Z</time>
      </trkpt>
      <trkpt lat="43.44698" lon="6.15007">
        <ele>272.2</ele>
        <time>2019-03-08T13:52:56Z</time>
      </trkpt>
      <trkpt lat="43.4469" lon="6.14998">
        <ele>272.1</ele>
        <time>2019-03-08T13:53:07Z</time>
      </trkpt>
      <trkpt lat="43.44683" lon="6.14989">
        <ele>272.2</ele>
        <time>2019-03-08T13:53:14Z</time>
      </trkpt>
      <trkpt lat="43.44678" lon="6.14978">
        <ele>272.4</ele>
        <time>2019-03-08T13:53:23Z</time>
      </trkpt>
      <trkpt lat="43.44674" lon="6.14967">
        <ele>272.4</ele>
        <time>2019-03-08T13:53:31Z</time>
      </trkpt>
      <trkpt lat="43.44667" lon="6.14957">
        <ele>272.5</ele>
        <time>2019-03-08T13:53:40Z</time>
      </trkpt>
      <trkpt lat="43.4466" lon="6.14947">
        <ele>273</ele>
        <time>2019-03-08T13:53:51Z</time>
      </trkpt>
      <trkpt lat="43.44652" lon="6.14939">
        <ele>273.3</ele>
        <time>2019-03-08T13:54:00Z</time>
      </trkpt>
      <trkpt lat="43.44642" lon="6.14936">
        <ele>273.1</ele>
        <time>2019-03-08T13:54:08Z</time>
      </trkpt>
      <trkpt lat="43.44633" lon="6.14937">
        <ele>273.5</ele>
        <time>2019-03-08T13:54:22Z</time>
      </trkpt>
      <trkpt lat="43.44624" lon="6.1494">
        <ele>274.2</ele>
        <time>2019-03-08T13:54:32Z</time>
      </trkpt>
      <trkpt lat="43.44615" lon="6.14946">
        <ele>274.6</ele>
        <time>2019-03-08T13:54:42Z</time>
      </trkpt>
      <trkpt lat="43.44607" lon="6.14951">
        <ele>274.9</ele>
        <time>2019-03-08T13:54:54Z</time>
      </trkpt>
      <trkpt lat="43.44599" lon="6.14958">
        <ele>275.6</ele>
        <time>2019-03-08T13:55:08Z</time>
      </trkpt>
      <trkpt lat="43.4459" lon="6.14965">
        <ele>276.2</ele>
        <time>2019-03-08T13:55:21Z</time>
      </trkpt>
      <trkpt lat="43.44582" lon="6.14972">
        <ele>276.1</ele>
        <time>2019-03-08T13:55:37Z</time>
      </trkpt>
      <trkpt lat="43.44574" lon="6.14977">
        <ele>276.8</ele>
        <time>2019-03-08T13:55:53Z</time>
      </trkpt>
      <trkpt lat="43.44564" lon="6.14977">
        <ele>276.6</ele>
        <time>2019-03-08T14:00:33Z</time>
      </trkpt>
      <trkpt lat="43.44556" lon="6.14971">
        <ele>277.2</ele>
        <time>2019-03-08T14:00:59Z</time>
      </trkpt>
      <trkpt lat="43.44551" lon="6.1496">
        <ele>278.4</ele>
        <time>2019-03-08T14:01:14Z</time>
      </trkpt>
      <trkpt lat="43.44543" lon="6.14953">
        <ele>278.9</ele>
        <time>2019-03-08T14:01:21Z</time>
      </trkpt>
      <trkpt lat="43.44537" lon="6.14943">
        <ele>280.1</ele>
        <time>2019-03-08T14:01:31Z</time>
      </trkpt>
      <trkpt lat="43.44533" lon="6.14931">
        <ele>281</ele>
        <time>2019-03-08T14:01:41Z</time>
      </trkpt>
      <trkpt lat="43.44528" lon="6.1492">
        <ele>281.8</ele>
        <time>2019-03-08T14:01:51Z</time>
      </trkpt>
      <trkpt lat="43.44526" lon="6.14908">
        <ele>282.8</ele>
        <time>2019-03-08T14:02:01Z</time>
      </trkpt>
      <trkpt lat="43.44521" lon="6.14897">
        <ele>283.3</ele>
        <time>2019-03-08T14:02:12Z</time>
      </trkpt>
      <trkpt lat="43.44512" lon="6.14894">
        <ele>286.2</ele>
        <time>2019-03-08T14:02:29Z</time>
      </trkpt>
      <trkpt lat="43.44502" lon="6.14895">
        <ele>288.7</ele>
        <time>2019-03-08T14:02:44Z</time>
      </trkpt>
      <trkpt lat="43.44493" lon="6.14902">
        <ele>291.1</ele>
        <time>2019-03-08T14:02:58Z</time>
      </trkpt>
      <trkpt lat="43.44484" lon="6.14904">
        <ele>291.5</ele>
        <time>2019-03-08T14:03:09Z</time>
      </trkpt>
      <trkpt lat="43.44483" lon="6.14917">
        <ele>292.2</ele>
        <time>2019-03-08T14:04:07Z</time>
      </trkpt>
      <trkpt lat="43.44483" lon="6.14929">
        <ele>293.7</ele>
        <time>2019-03-08T14:04:22Z</time>
      </trkpt>
      <trkpt lat="43.44479" lon="6.14941">
        <ele>294.6</ele>
        <time>2019-03-08T14:04:33Z</time>
      </trkpt>
      <trkpt lat="43.44478" lon="6.14955">
        <ele>296.4</ele>
        <time>2019-03-08T14:04:47Z</time>
      </trkpt>
      <trkpt lat="43.44479" lon="6.14967">
        <ele>298.6</ele>
        <time>2019-03-08T14:05:03Z</time>
      </trkpt>
      <trkpt lat="43.44478" lon="6.1498">
        <ele>300.9</ele>
        <time>2019-03-08T14:05:19Z</time>
      </trkpt>
      <trkpt lat="43.44478" lon="6.14992">
        <ele>302</ele>
        <time>2019-03-08T14:05:29Z</time>
      </trkpt>
      <trkpt lat="43.44473" lon="6.15003">
        <ele>304</ele>
        <time>2019-03-08T14:05:43Z</time>
      </trkpt>
      <trkpt lat="43.44473" lon="6.15016">
        <ele>305.7</ele>
        <time>2019-03-08T14:05:54Z</time>
      </trkpt>
      <trkpt lat="43.44467" lon="6.15025">
        <ele>307.4</ele>
        <time>2019-03-08T14:06:05Z</time>
      </trkpt>
      <trkpt lat="43.44462" lon="6.15037">
        <ele>309.4</ele>
        <time>2019-03-08T14:06:19Z</time>
      </trkpt>
      <trkpt lat="43.44463" lon="6.15049">
        <ele>311.3</ele>
        <time>2019-03-08T14:06:35Z</time>
      </trkpt>
      <trkpt lat="43.44466" lon="6.15062">
        <ele>313.1</ele>
        <time>2019-03-08T14:06:48Z</time>
      </trkpt>
      <trkpt lat="43.44473" lon="6.15072">
        <ele>314.9</ele>
        <time>2019-03-08T14:07:02Z</time>
      </trkpt>
      <trkpt lat="43.44476" lon="6.15083">
        <ele>316.8</ele>
        <time>2019-03-08T14:07:13Z</time>
      </trkpt>
      <trkpt lat="43.44481" lon="6.15095">
        <ele>318.6</ele>
        <time>2019-03-08T14:07:27Z</time>
      </trkpt>
      <trkpt lat="43.44481" lon="6.15108">
        <ele>320.1</ele>
        <time>2019-03-08T14:07:41Z</time>
      </trkpt>
      <trkpt lat="43.44482" lon="6.15121">
        <ele>321.7</ele>
        <time>2019-03-08T14:07:56Z</time>
      </trkpt>
      <trkpt lat="43.44483" lon="6.15133">
        <ele>322.9</ele>
        <time>2019-03-08T14:08:06Z</time>
      </trkpt>
      <trkpt lat="43.44487" lon="6.15145">
        <ele>324.8</ele>
        <time>2019-03-08T14:08:17Z</time>
      </trkpt>
      <trkpt lat="43.4449" lon="6.15158">
        <ele>327.9</ele>
        <time>2019-03-08T14:08:31Z</time>
      </trkpt>
      <trkpt lat="43.44492" lon="6.1517">
        <ele>330.5</ele>
        <time>2019-03-08T14:08:49Z</time>
      </trkpt>
      <trkpt lat="43.44497" lon="6.15181">
        <ele>332.3</ele>
        <time>2019-03-08T14:09:03Z</time>
      </trkpt>
      <trkpt lat="43.44501" lon="6.15193">
        <ele>333.7</ele>
        <time>2019-03-08T14:09:15Z</time>
      </trkpt>
      <trkpt lat="43.44505" lon="6.15204">
        <ele>336.6</ele>
        <time>2019-03-08T14:09:36Z</time>
      </trkpt>
      <trkpt lat="43.44509" lon="6.15216">
        <ele>337.6</ele>
        <time>2019-03-08T14:09:48Z</time>
      </trkpt>
      <trkpt lat="43.44515" lon="6.15227">
        <ele>338.2</ele>
        <time>2019-03-08T14:09:57Z</time>
      </trkpt>
      <trkpt lat="43.44517" lon="6.1524">
        <ele>339</ele>
        <time>2019-03-08T14:10:09Z</time>
      </trkpt>
      <trkpt lat="43.44517" lon="6.15252">
        <ele>340</ele>
        <time>2019-03-08T14:10:22Z</time>
      </trkpt>
      <trkpt lat="43.44525" lon="6.1526">
        <ele>340.5</ele>
        <time>2019-03-08T14:10:27Z</time>
      </trkpt>
      <trkpt lat="43.44528" lon="6.15272">
        <ele>342</ele>
        <time>2019-03-08T14:10:37Z</time>
      </trkpt>
      <trkpt lat="43.4453" lon="6.15284">
        <ele>344.4</ele>
        <time>2019-03-08T14:10:50Z</time>
      </trkpt>
      <trkpt lat="43.4453" lon="6.15298">
        <ele>345.8</ele>
        <time>2019-03-08T14:11:01Z</time>
      </trkpt>
      <trkpt lat="43.44531" lon="6.15312">
        <ele>347.6</ele>
        <time>2019-03-08T14:11:14Z</time>
      </trkpt>
      <trkpt lat="43.44531" lon="6.15325">
        <ele>348.7</ele>
        <time>2019-03-08T14:11:26Z</time>
      </trkpt>
      <trkpt lat="43.44531" lon="6.15337">
        <ele>350.3</ele>
        <time>2019-03-08T14:11:37Z</time>
      </trkpt>
      <trkpt lat="43.44529" lon="6.1535">
        <ele>351.9</ele>
        <time>2019-03-08T14:11:47Z</time>
      </trkpt>
      <trkpt lat="43.44529" lon="6.15364">
        <ele>352.9</ele>
        <time>2019-03-08T14:12:00Z</time>
      </trkpt>
      <trkpt lat="43.4453" lon="6.15376">
        <ele>353</ele>
        <time>2019-03-08T14:12:22Z</time>
      </trkpt>
      <trkpt lat="43.44534" lon="6.15388">
        <ele>355.1</ele>
        <time>2019-03-08T14:12:37Z</time>
      </trkpt>
      <trkpt lat="43.4454" lon="6.15398">
        <ele>357.3</ele>
        <time>2019-03-08T14:12:51Z</time>
      </trkpt>
      <trkpt lat="43.44546" lon="6.15409">
        <ele>359.8</ele>
        <time>2019-03-08T14:13:04Z</time>
      </trkpt>
      <trkpt lat="43.44549" lon="6.15421">
        <ele>361.6</ele>
        <time>2019-03-08T14:13:16Z</time>
      </trkpt>
      <trkpt lat="43.44553" lon="6.15434">
        <ele>363</ele>
        <time>2019-03-08T14:13:27Z</time>
      </trkpt>
      <trkpt lat="43.44556" lon="6.15446">
        <ele>364.5</ele>
        <time>2019-03-08T14:13:57Z</time>
      </trkpt>
      <trkpt lat="43.44565" lon="6.15448">
        <ele>367.2</ele>
        <time>2019-03-08T14:14:28Z</time>
      </trkpt>
      <trkpt lat="43.44572" lon="6.15441">
        <ele>371.3</ele>
        <time>2019-03-08T14:14:53Z</time>
      </trkpt>
      <trkpt lat="43.4458" lon="6.15434">
        <ele>374</ele>
        <time>2019-03-08T14:15:11Z</time>
      </trkpt>
      <trkpt lat="43.44589" lon="6.15428">
        <ele>375.9</ele>
        <time>2019-03-08T14:15:26Z</time>
      </trkpt>
      <trkpt lat="43.44595" lon="6.15418">
        <ele>377.1</ele>
        <time>2019-03-08T14:15:41Z</time>
      </trkpt>
      <trkpt lat="43.446" lon="6.15407">
        <ele>378.6</ele>
        <time>2019-03-08T14:16:31Z</time>
      </trkpt>
      <trkpt lat="43.44604" lon="6.15396">
        <ele>380.9</ele>
        <time>2019-03-08T14:16:49Z</time>
      </trkpt>
      <trkpt lat="43.44612" lon="6.15388">
        <ele>382.4</ele>
        <time>2019-03-08T14:17:01Z</time>
      </trkpt>
      <trkpt lat="43.44617" lon="6.154">
        <ele>383.9</ele>
        <time>2019-03-08T14:17:18Z</time>
      </trkpt>
      <trkpt lat="43.44616" lon="6.15412">
        <ele>385.6</ele>
        <time>2019-03-08T14:17:32Z</time>
      </trkpt>
      <trkpt lat="43.44616" lon="6.15425">
        <ele>387.5</ele>
        <time>2019-03-08T14:17:46Z</time>
      </trkpt>
      <trkpt lat="43.44618" lon="6.15439">
        <ele>389.3</ele>
        <time>2019-03-08T14:17:58Z</time>
      </trkpt>
      <trkpt lat="43.4462" lon="6.15451">
        <ele>390.9</ele>
        <time>2019-03-08T14:18:24Z</time>
      </trkpt>
      <trkpt lat="43.4462" lon="6.15463">
        <ele>391.9</ele>
        <time>2019-03-08T14:18:53Z</time>
      </trkpt>
      <trkpt lat="43.4462" lon="6.15477">
        <ele>391.7</ele>
        <time>2019-03-08T14:20:41Z</time>
      </trkpt>
      <trkpt lat="43.44624" lon="6.15489">
        <ele>392.2</ele>
        <time>2019-03-08T14:20:55Z</time>
      </trkpt>
      <trkpt lat="43.44628" lon="6.155">
        <ele>391.5</ele>
        <time>2019-03-08T14:21:08Z</time>
      </trkpt>
      <trkpt lat="43.44627" lon="6.15512">
        <ele>390.6</ele>
        <time>2019-03-08T14:21:39Z</time>
      </trkpt>
      <trkpt lat="43.44622" lon="6.15501">
        <ele>391.4</ele>
        <time>2019-03-08T14:22:12Z</time>
      </trkpt>
      <trkpt lat="43.4462" lon="6.15489">
        <ele>391.7</ele>
        <time>2019-03-08T14:22:24Z</time>
      </trkpt>
      <trkpt lat="43.4462" lon="6.15476">
        <ele>392</ele>
        <time>2019-03-08T14:22:37Z</time>
      </trkpt>
      <trkpt lat="43.44624" lon="6.15488">
        <ele>391.8</ele>
        <time>2019-03-08T14:27:27Z</time>
      </trkpt>
      <trkpt lat="43.44631" lon="6.15497">
        <ele>391.4</ele>
        <time>2019-03-08T14:27:49Z</time>
      </trkpt>
      <trkpt lat="43.44633" lon="6.1551">
        <ele>390.9</ele>
        <time>2019-03-08T14:28:07Z</time>
      </trkpt>
      <trkpt lat="43.44635" lon="6.15522">
        <ele>391.1</ele>
        <time>2019-03-08T14:28:39Z</time>
      </trkpt>
      <trkpt lat="43.44637" lon="6.15535">
        <ele>391</ele>
        <time>2019-03-08T14:29:04Z</time>
      </trkpt>
      <trkpt lat="43.44639" lon="6.15547">
        <ele>390</ele>
        <time>2019-03-08T14:29:22Z</time>
      </trkpt>
      <trkpt lat="43.44633" lon="6.15557">
        <ele>389.9</ele>
        <time>2019-03-08T14:30:29Z</time>
      </trkpt>
      <trkpt lat="43.44629" lon="6.15546">
        <ele>388.7</ele>
        <time>2019-03-08T14:33:48Z</time>
      </trkpt>
      <trkpt lat="43.44633" lon="6.15534">
        <ele>388.7</ele>
        <time>2019-03-08T14:34:08Z</time>
      </trkpt>
      <trkpt lat="43.44635" lon="6.15522">
        <ele>390.4</ele>
        <time>2019-03-08T14:35:13Z</time>
      </trkpt>
      <trkpt lat="43.44631" lon="6.1551">
        <ele>390.1</ele>
        <time>2019-03-08T14:35:26Z</time>
      </trkpt>
      <trkpt lat="43.44628" lon="6.15498">
        <ele>390.3</ele>
        <time>2019-03-08T14:35:41Z</time>
      </trkpt>
      <trkpt lat="43.44624" lon="6.15487">
        <ele>390.6</ele>
        <time>2019-03-08T14:35:51Z</time>
      </trkpt>
      <trkpt lat="43.4462" lon="6.15474">
        <ele>389.8</ele>
        <time>2019-03-08T14:36:00Z</time>
      </trkpt>
      <trkpt lat="43.44616" lon="6.15462">
        <ele>389.4</ele>
        <time>2019-03-08T14:36:09Z</time>
      </trkpt>
      <trkpt lat="43.44615" lon="6.15449">
        <ele>388.5</ele>
        <time>2019-03-08T14:36:17Z</time>
      </trkpt>
      <trkpt lat="43.44612" lon="6.15437">
        <ele>387.5</ele>
        <time>2019-03-08T14:36:27Z</time>
      </trkpt>
      <trkpt lat="43.44608" lon="6.15424">
        <ele>386.1</ele>
        <time>2019-03-08T14:36:42Z</time>
      </trkpt>
      <trkpt lat="43.44608" lon="6.15412">
        <ele>384.5</ele>
        <time>2019-03-08T14:36:52Z</time>
      </trkpt>
      <trkpt lat="43.44612" lon="6.154">
        <ele>383.2</ele>
        <time>2019-03-08T14:37:04Z</time>
      </trkpt>
      <trkpt lat="43.44603" lon="6.154">
        <ele>378.9</ele>
        <time>2019-03-08T14:37:31Z</time>
      </trkpt>
      <trkpt lat="43.446" lon="6.15413">
        <ele>377</ele>
        <time>2019-03-08T14:37:43Z</time>
      </trkpt>
      <trkpt lat="43.44597" lon="6.15425">
        <ele>375.7</ele>
        <time>2019-03-08T14:37:52Z</time>
      </trkpt>
      <trkpt lat="43.44589" lon="6.15433">
        <ele>374.1</ele>
        <time>2019-03-08T14:38:03Z</time>
      </trkpt>
      <trkpt lat="43.44582" lon="6.15442">
        <ele>372</ele>
        <time>2019-03-08T14:38:14Z</time>
      </trkpt>
      <trkpt lat="43.44575" lon="6.15451">
        <ele>369.9</ele>
        <time>2019-03-08T14:38:27Z</time>
      </trkpt>
      <trkpt lat="43.44566" lon="6.15455">
        <ele>367.4</ele>
        <time>2019-03-08T14:38:39Z</time>
      </trkpt>
      <trkpt lat="43.44557" lon="6.15454">
        <ele>364.7</ele>
        <time>2019-03-08T14:39:54Z</time>
      </trkpt>
      <trkpt lat="43.44557" lon="6.15467">
        <ele>364.2</ele>
        <time>2019-03-08T14:40:15Z</time>
      </trkpt>
      <trkpt lat="43.44561" lon="6.15479">
        <ele>364.9</ele>
        <time>2019-03-08T14:40:28Z</time>
      </trkpt>
      <trkpt lat="43.44565" lon="6.1549">
        <ele>364.6</ele>
        <time>2019-03-08T14:40:39Z</time>
      </trkpt>
      <trkpt lat="43.44568" lon="6.15502">
        <ele>363.5</ele>
        <time>2019-03-08T14:40:51Z</time>
      </trkpt>
      <trkpt lat="43.44573" lon="6.15513">
        <ele>363.3</ele>
        <time>2019-03-08T14:41:03Z</time>
      </trkpt>
      <trkpt lat="43.44576" lon="6.15526">
        <ele>363</ele>
        <time>2019-03-08T14:41:16Z</time>
      </trkpt>
      <trkpt lat="43.44577" lon="6.15538">
        <ele>362.5</ele>
        <time>2019-03-08T14:41:27Z</time>
      </trkpt>
      <trkpt lat="43.44578" lon="6.15552">
        <ele>361.9</ele>
        <time>2019-03-08T14:41:37Z</time>
      </trkpt>
      <trkpt lat="43.44576" lon="6.15565">
        <ele>360.6</ele>
        <time>2019-03-08T14:41:49Z</time>
      </trkpt>
      <trkpt lat="43.44576" lon="6.15578">
        <ele>359.6</ele>
        <time>2019-03-08T14:41:59Z</time>
      </trkpt>
      <trkpt lat="43.44577" lon="6.15592">
        <ele>359.2</ele>
        <time>2019-03-08T14:42:10Z</time>
      </trkpt>
      <trkpt lat="43.44577" lon="6.15605">
        <ele>358.1</ele>
        <time>2019-03-08T14:42:22Z</time>
      </trkpt>
      <trkpt lat="43.44577" lon="6.15618">
        <ele>357.1</ele>
        <time>2019-03-08T14:42:35Z</time>
      </trkpt>
      <trkpt lat="43.44578" lon="6.1563">
        <ele>356.1</ele>
        <time>2019-03-08T14:42:46Z</time>
      </trkpt>
      <trkpt lat="43.44578" lon="6.15643">
        <ele>354.3</ele>
        <time>2019-03-08T14:43:01Z</time>
      </trkpt>
      <trkpt lat="43.44579" lon="6.15656">
        <ele>352.8</ele>
        <time>2019-03-08T14:43:17Z</time>
      </trkpt>
      <trkpt lat="43.44575" lon="6.15667">
        <ele>352</ele>
        <time>2019-03-08T14:43:27Z</time>
      </trkpt>
      <trkpt lat="43.44571" lon="6.1568">
        <ele>351.5</ele>
        <time>2019-03-08T14:43:37Z</time>
      </trkpt>
      <trkpt lat="43.44567" lon="6.15692">
        <ele>351.2</ele>
        <time>2019-03-08T14:43:47Z</time>
      </trkpt>
      <trkpt lat="43.44563" lon="6.15704">
        <ele>352.4</ele>
        <time>2019-03-08T14:43:57Z</time>
      </trkpt>
      <trkpt lat="43.44562" lon="6.15716">
        <ele>354.7</ele>
        <time>2019-03-08T14:44:08Z</time>
      </trkpt>
      <trkpt lat="43.4456" lon="6.15729">
        <ele>356.1</ele>
        <time>2019-03-08T14:44:21Z</time>
      </trkpt>
      <trkpt lat="43.44558" lon="6.15741">
        <ele>357.1</ele>
        <time>2019-03-08T14:44:32Z</time>
      </trkpt>
      <trkpt lat="43.44556" lon="6.15754">
        <ele>358.4</ele>
        <time>2019-03-08T14:44:42Z</time>
      </trkpt>
      <trkpt lat="43.44554" lon="6.15767">
        <ele>359.3</ele>
        <time>2019-03-08T14:44:53Z</time>
      </trkpt>
      <trkpt lat="43.44552" lon="6.15779">
        <ele>360</ele>
        <time>2019-03-08T14:45:03Z</time>
      </trkpt>
      <trkpt lat="43.44552" lon="6.15792">
        <ele>361.4</ele>
        <time>2019-03-08T14:45:14Z</time>
      </trkpt>
      <trkpt lat="43.4455" lon="6.15805">
        <ele>361.9</ele>
        <time>2019-03-08T14:45:25Z</time>
      </trkpt>
      <trkpt lat="43.44549" lon="6.15819">
        <ele>362.9</ele>
        <time>2019-03-08T14:45:36Z</time>
      </trkpt>
      <trkpt lat="43.44549" lon="6.15832">
        <ele>364</ele>
        <time>2019-03-08T14:45:47Z</time>
      </trkpt>
      <trkpt lat="43.44549" lon="6.15844">
        <ele>365</ele>
        <time>2019-03-08T14:45:58Z</time>
      </trkpt>
      <trkpt lat="43.44548" lon="6.15857">
        <ele>366.7</ele>
        <time>2019-03-08T14:46:10Z</time>
      </trkpt>
      <trkpt lat="43.44548" lon="6.1587">
        <ele>367.6</ele>
        <time>2019-03-08T14:46:22Z</time>
      </trkpt>
      <trkpt lat="43.44546" lon="6.15882">
        <ele>368.3</ele>
        <time>2019-03-08T14:46:34Z</time>
      </trkpt>
      <trkpt lat="43.44543" lon="6.15895">
        <ele>370.1</ele>
        <time>2019-03-08T14:46:45Z</time>
      </trkpt>
      <trkpt lat="43.44542" lon="6.15908">
        <ele>371.3</ele>
        <time>2019-03-08T14:46:55Z</time>
      </trkpt>
      <trkpt lat="43.4454" lon="6.1592">
        <ele>371.5</ele>
        <time>2019-03-08T14:47:04Z</time>
      </trkpt>
      <trkpt lat="43.44538" lon="6.15933">
        <ele>371.2</ele>
        <time>2019-03-08T14:47:14Z</time>
      </trkpt>
      <trkpt lat="43.44538" lon="6.15946">
        <ele>371.7</ele>
        <time>2019-03-08T14:47:23Z</time>
      </trkpt>
      <trkpt lat="43.44538" lon="6.15959">
        <ele>371</ele>
        <time>2019-03-08T14:47:32Z</time>
      </trkpt>
      <trkpt lat="43.44538" lon="6.15972">
        <ele>370.5</ele>
        <time>2019-03-08T14:47:40Z</time>
      </trkpt>
      <trkpt lat="43.44538" lon="6.15986">
        <ele>370.3</ele>
        <time>2019-03-08T14:47:50Z</time>
      </trkpt>
      <trkpt lat="43.44538" lon="6.15999">
        <ele>369.7</ele>
        <time>2019-03-08T14:48:00Z</time>
      </trkpt>
      <trkpt lat="43.44539" lon="6.16012">
        <ele>369.1</ele>
        <time>2019-03-08T14:48:10Z</time>
      </trkpt>
      <trkpt lat="43.44538" lon="6.16025">
        <ele>369.2</ele>
        <time>2019-03-08T14:48:17Z</time>
      </trkpt>
      <trkpt lat="43.44538" lon="6.16038">
        <ele>369.3</ele>
        <time>2019-03-08T14:48:26Z</time>
      </trkpt>
      <trkpt lat="43.44537" lon="6.16051">
        <ele>369.3</ele>
        <time>2019-03-08T14:48:36Z</time>
      </trkpt>
      <trkpt lat="43.44536" lon="6.16065">
        <ele>368.9</ele>
        <time>2019-03-08T14:48:44Z</time>
      </trkpt>
      <trkpt lat="43.44534" lon="6.16078">
        <ele>368.6</ele>
        <time>2019-03-08T14:48:53Z</time>
      </trkpt>
      <trkpt lat="43.44532" lon="6.16091">
        <ele>368.8</ele>
        <time>2019-03-08T14:49:03Z</time>
      </trkpt>
      <trkpt lat="43.44529" lon="6.16104">
        <ele>368.6</ele>
        <time>2019-03-08T14:49:13Z</time>
      </trkpt>
      <trkpt lat="43.44528" lon="6.16116">
        <ele>368.5</ele>
        <time>2019-03-08T14:49:21Z</time>
      </trkpt>
      <trkpt lat="43.44527" lon="6.16129">
        <ele>368</ele>
        <time>2019-03-08T14:49:31Z</time>
      </trkpt>
      <trkpt lat="43.44527" lon="6.16142">
        <ele>367.2</ele>
        <time>2019-03-08T14:49:41Z</time>
      </trkpt>
      <trkpt lat="43.44527" lon="6.16156">
        <ele>366.1</ele>
        <time>2019-03-08T14:49:52Z</time>
      </trkpt>
      <trkpt lat="43.44527" lon="6.16169">
        <ele>365.2</ele>
        <time>2019-03-08T14:50:03Z</time>
      </trkpt>
      <trkpt lat="43.44526" lon="6.16182">
        <ele>364.7</ele>
        <time>2019-03-08T14:50:14Z</time>
      </trkpt>
      <trkpt lat="43.44524" lon="6.16194">
        <ele>364.2</ele>
        <time>2019-03-08T14:50:22Z</time>
      </trkpt>
      <trkpt lat="43.44523" lon="6.16208">
        <ele>363.1</ele>
        <time>2019-03-08T14:50:33Z</time>
      </trkpt>
      <trkpt lat="43.44522" lon="6.16221">
        <ele>362</ele>
        <time>2019-03-08T14:50:43Z</time>
      </trkpt>
      <trkpt lat="43.44521" lon="6.16234">
        <ele>360.9</ele>
        <time>2019-03-08T14:50:56Z</time>
      </trkpt>
      <trkpt lat="43.44521" lon="6.16247">
        <ele>359.6</ele>
        <time>2019-03-08T14:51:08Z</time>
      </trkpt>
      <trkpt lat="43.44522" lon="6.16261">
        <ele>358.5</ele>
        <time>2019-03-08T14:51:17Z</time>
      </trkpt>
      <trkpt lat="43.44523" lon="6.16273">
        <ele>357.4</ele>
        <time>2019-03-08T14:51:28Z</time>
      </trkpt>
      <trkpt lat="43.44524" lon="6.16286">
        <ele>356.4</ele>
        <time>2019-03-08T14:51:36Z</time>
      </trkpt>
      <trkpt lat="43.44525" lon="6.16299">
        <ele>355.7</ele>
        <time>2019-03-08T14:51:47Z</time>
      </trkpt>
      <trkpt lat="43.44523" lon="6.16313">
        <ele>354.3</ele>
        <time>2019-03-08T14:51:56Z</time>
      </trkpt>
      <trkpt lat="43.44522" lon="6.16325">
        <ele>352.8</ele>
        <time>2019-03-08T14:52:07Z</time>
      </trkpt>
      <trkpt lat="43.44522" lon="6.16339">
        <ele>352.5</ele>
        <time>2019-03-08T14:52:16Z</time>
      </trkpt>
      <trkpt lat="43.4452" lon="6.16351">
        <ele>351.7</ele>
        <time>2019-03-08T14:52:23Z</time>
      </trkpt>
      <trkpt lat="43.44517" lon="6.16363">
        <ele>351.6</ele>
        <time>2019-03-08T14:52:29Z</time>
      </trkpt>
      <trkpt lat="43.44514" lon="6.16376">
        <ele>350.9</ele>
        <time>2019-03-08T14:52:37Z</time>
      </trkpt>
      <trkpt lat="43.44509" lon="6.16388">
        <ele>350.4</ele>
        <time>2019-03-08T14:52:45Z</time>
      </trkpt>
      <trkpt lat="43.44505" lon="6.164">
        <ele>350.4</ele>
        <time>2019-03-08T14:52:52Z</time>
      </trkpt>
      <trkpt lat="43.44501" lon="6.16413">
        <ele>350.7</ele>
        <time>2019-03-08T14:53:02Z</time>
      </trkpt>
      <trkpt lat="43.44499" lon="6.16425">
        <ele>351.1</ele>
        <time>2019-03-08T14:53:13Z</time>
      </trkpt>
      <trkpt lat="43.44497" lon="6.16438">
        <ele>351.5</ele>
        <time>2019-03-08T14:53:23Z</time>
      </trkpt>
      <trkpt lat="43.44495" lon="6.16452">
        <ele>352.2</ele>
        <time>2019-03-08T14:53:33Z</time>
      </trkpt>
      <trkpt lat="43.44493" lon="6.16464">
        <ele>353</ele>
        <time>2019-03-08T14:53:42Z</time>
      </trkpt>
      <trkpt lat="43.4449" lon="6.16477">
        <ele>353.6</ele>
        <time>2019-03-08T14:53:54Z</time>
      </trkpt>
      <trkpt lat="43.44489" lon="6.1649">
        <ele>354</ele>
        <time>2019-03-08T14:54:02Z</time>
      </trkpt>
      <trkpt lat="43.44488" lon="6.16504">
        <ele>354.2</ele>
        <time>2019-03-08T14:54:11Z</time>
      </trkpt>
      <trkpt lat="43.44487" lon="6.16516">
        <ele>354.8</ele>
        <time>2019-03-08T14:54:20Z</time>
      </trkpt>
      <trkpt lat="43.44486" lon="6.16529">
        <ele>354.4</ele>
        <time>2019-03-08T14:54:30Z</time>
      </trkpt>
      <trkpt lat="43.44485" lon="6.16543">
        <ele>354.1</ele>
        <time>2019-03-08T14:54:38Z</time>
      </trkpt>
      <trkpt lat="43.44486" lon="6.16556">
        <ele>353.3</ele>
        <time>2019-03-08T14:54:49Z</time>
      </trkpt>
      <trkpt lat="43.44488" lon="6.16569">
        <ele>352.6</ele>
        <time>2019-03-08T14:55:01Z</time>
      </trkpt>
      <trkpt lat="43.44488" lon="6.16582">
        <ele>352.7</ele>
        <time>2019-03-08T14:58:05Z</time>
      </trkpt>
      <trkpt lat="43.44488" lon="6.16594">
        <ele>352</ele>
        <time>2019-03-08T14:58:19Z</time>
      </trkpt>
      <trkpt lat="43.44488" lon="6.16607">
        <ele>351.5</ele>
        <time>2019-03-08T14:58:34Z</time>
      </trkpt>
      <trkpt lat="43.44488" lon="6.1662">
        <ele>350.8</ele>
        <time>2019-03-08T14:58:47Z</time>
      </trkpt>
      <trkpt lat="43.44489" lon="6.16634">
        <ele>349.7</ele>
        <time>2019-03-08T14:58:58Z</time>
      </trkpt>
      <trkpt lat="43.44491" lon="6.16646">
        <ele>349.2</ele>
        <time>2019-03-08T14:59:11Z</time>
      </trkpt>
      <trkpt lat="43.44492" lon="6.16659">
        <ele>349.2</ele>
        <time>2019-03-08T14:59:24Z</time>
      </trkpt>
      <trkpt lat="43.44492" lon="6.16671">
        <ele>348.6</ele>
        <time>2019-03-08T14:59:33Z</time>
      </trkpt>
      <trkpt lat="43.44493" lon="6.16684">
        <ele>347.7</ele>
        <time>2019-03-08T14:59:44Z</time>
      </trkpt>
      <trkpt lat="43.44492" lon="6.16697">
        <ele>347.3</ele>
        <time>2019-03-08T14:59:50Z</time>
      </trkpt>
      <trkpt lat="43.44491" lon="6.1671">
        <ele>346.8</ele>
        <time>2019-03-08T15:00:01Z</time>
      </trkpt>
      <trkpt lat="43.4449" lon="6.16722">
        <ele>345.8</ele>
        <time>2019-03-08T15:00:11Z</time>
      </trkpt>
      <trkpt lat="43.44488" lon="6.16735">
        <ele>344.9</ele>
        <time>2019-03-08T15:00:21Z</time>
      </trkpt>
      <trkpt lat="43.44486" lon="6.16747">
        <ele>344.7</ele>
        <time>2019-03-08T15:00:31Z</time>
      </trkpt>
      <trkpt lat="43.44485" lon="6.16761">
        <ele>344.2</ele>
        <time>2019-03-08T15:00:41Z</time>
      </trkpt>
      <trkpt lat="43.44483" lon="6.16773">
        <ele>343.7</ele>
        <time>2019-03-08T15:00:50Z</time>
      </trkpt>
      <trkpt lat="43.44481" lon="6.16786">
        <ele>342.8</ele>
        <time>2019-03-08T15:00:59Z</time>
      </trkpt>
      <trkpt lat="43.44478" lon="6.16799">
        <ele>342.3</ele>
        <time>2019-03-08T15:01:10Z</time>
      </trkpt>
      <trkpt lat="43.44477" lon="6.16812">
        <ele>342.2</ele>
        <time>2019-03-08T15:01:20Z</time>
      </trkpt>
      <trkpt lat="43.44476" lon="6.16826">
        <ele>341.4</ele>
        <time>2019-03-08T15:01:31Z</time>
      </trkpt>
      <trkpt lat="43.44475" lon="6.1684">
        <ele>340.9</ele>
        <time>2019-03-08T15:01:41Z</time>
      </trkpt>
      <trkpt lat="43.44476" lon="6.16853">
        <ele>340.3</ele>
        <time>2019-03-08T15:01:51Z</time>
      </trkpt>
      <trkpt lat="43.44476" lon="6.16866">
        <ele>339.4</ele>
        <time>2019-03-08T15:02:01Z</time>
      </trkpt>
      <trkpt lat="43.44476" lon="6.16879">
        <ele>338.2</ele>
        <time>2019-03-08T15:02:14Z</time>
      </trkpt>
      <trkpt lat="43.44477" lon="6.16891">
        <ele>337.3</ele>
        <time>2019-03-08T15:02:26Z</time>
      </trkpt>
      <trkpt lat="43.44478" lon="6.16905">
        <ele>336.7</ele>
        <time>2019-03-08T15:02:35Z</time>
      </trkpt>
      <trkpt lat="43.44477" lon="6.16918">
        <ele>335.8</ele>
        <time>2019-03-08T15:02:45Z</time>
      </trkpt>
      <trkpt lat="43.44478" lon="6.16931">
        <ele>335.4</ele>
        <time>2019-03-08T15:02:55Z</time>
      </trkpt>
      <trkpt lat="43.44479" lon="6.16943">
        <ele>334</ele>
        <time>2019-03-08T15:03:07Z</time>
      </trkpt>
      <trkpt lat="43.4448" lon="6.16956">
        <ele>333.5</ele>
        <time>2019-03-08T15:03:17Z</time>
      </trkpt>
      <trkpt lat="43.4448" lon="6.16969">
        <ele>332.5</ele>
        <time>2019-03-08T15:03:29Z</time>
      </trkpt>
      <trkpt lat="43.44482" lon="6.16981">
        <ele>331.7</ele>
        <time>2019-03-08T15:03:39Z</time>
      </trkpt>
      <trkpt lat="43.44481" lon="6.16994">
        <ele>331.5</ele>
        <time>2019-03-08T15:03:48Z</time>
      </trkpt>
      <trkpt lat="43.44479" lon="6.17007">
        <ele>331.4</ele>
        <time>2019-03-08T15:03:57Z</time>
      </trkpt>
      <trkpt lat="43.44476" lon="6.1702">
        <ele>331.4</ele>
        <time>2019-03-08T15:04:07Z</time>
      </trkpt>
      <trkpt lat="43.44472" lon="6.17032">
        <ele>331.2</ele>
        <time>2019-03-08T15:04:17Z</time>
      </trkpt>
      <trkpt lat="43.4447" lon="6.17044">
        <ele>330.7</ele>
        <time>2019-03-08T15:04:27Z</time>
      </trkpt>
      <trkpt lat="43.44468" lon="6.17057">
        <ele>331</ele>
        <time>2019-03-08T15:04:36Z</time>
      </trkpt>
      <trkpt lat="43.44469" lon="6.1707">
        <ele>330.5</ele>
        <time>2019-03-08T15:04:46Z</time>
      </trkpt>
      <trkpt lat="43.44468" lon="6.17083">
        <ele>329</ele>
        <time>2019-03-08T15:04:57Z</time>
      </trkpt>
      <trkpt lat="43.44467" lon="6.17096">
        <ele>328.1</ele>
        <time>2019-03-08T15:05:07Z</time>
      </trkpt>
      <trkpt lat="43.44466" lon="6.1711">
        <ele>327.4</ele>
        <time>2019-03-08T15:05:16Z</time>
      </trkpt>
      <trkpt lat="43.44465" lon="6.17122">
        <ele>326.8</ele>
        <time>2019-03-08T15:05:23Z</time>
      </trkpt>
      <trkpt lat="43.44465" lon="6.17135">
        <ele>325.7</ele>
        <time>2019-03-08T15:05:33Z</time>
      </trkpt>
      <trkpt lat="43.44465" lon="6.17148">
        <ele>324.5</ele>
        <time>2019-03-08T15:05:42Z</time>
      </trkpt>
      <trkpt lat="43.44466" lon="6.17162">
        <ele>323.4</ele>
        <time>2019-03-08T15:05:53Z</time>
      </trkpt>
      <trkpt lat="43.44468" lon="6.17174">
        <ele>322.8</ele>
        <time>2019-03-08T15:06:04Z</time>
      </trkpt>
      <trkpt lat="43.44469" lon="6.17187">
        <ele>321.8</ele>
        <time>2019-03-08T15:06:15Z</time>
      </trkpt>
      <trkpt lat="43.44469" lon="6.17201">
        <ele>321.7</ele>
        <time>2019-03-08T15:06:26Z</time>
      </trkpt>
      <trkpt lat="43.44471" lon="6.17213">
        <ele>321.1</ele>
        <time>2019-03-08T15:06:36Z</time>
      </trkpt>
      <trkpt lat="43.44471" lon="6.17227">
        <ele>320.9</ele>
        <time>2019-03-08T15:06:43Z</time>
      </trkpt>
      <trkpt lat="43.44473" lon="6.17241">
        <ele>320.7</ele>
        <time>2019-03-08T15:06:54Z</time>
      </trkpt>
      <trkpt lat="43.44475" lon="6.17253">
        <ele>320.3</ele>
        <time>2019-03-08T15:07:03Z</time>
      </trkpt>
      <trkpt lat="43.44476" lon="6.17265">
        <ele>320</ele>
        <time>2019-03-08T15:07:10Z</time>
      </trkpt>
      <trkpt lat="43.44478" lon="6.17278">
        <ele>319.7</ele>
        <time>2019-03-08T15:07:21Z</time>
      </trkpt>
      <trkpt lat="43.44478" lon="6.17292">
        <ele>319.3</ele>
        <time>2019-03-08T15:07:27Z</time>
      </trkpt>
      <trkpt lat="43.4448" lon="6.17304">
        <ele>318.7</ele>
        <time>2019-03-08T15:07:38Z</time>
      </trkpt>
      <trkpt lat="43.44481" lon="6.17317">
        <ele>317.8</ele>
        <time>2019-03-08T15:07:45Z</time>
      </trkpt>
      <trkpt lat="43.44483" lon="6.17329">
        <ele>316.7</ele>
        <time>2019-03-08T15:07:55Z</time>
      </trkpt>
      <trkpt lat="43.44485" lon="6.17342">
        <ele>315.5</ele>
        <time>2019-03-08T15:08:23Z</time>
      </trkpt>
      <trkpt lat="43.44488" lon="6.17354">
        <ele>315</ele>
        <time>2019-03-08T15:08:32Z</time>
      </trkpt>
      <trkpt lat="43.44489" lon="6.17368">
        <ele>314.2</ele>
        <time>2019-03-08T15:08:43Z</time>
      </trkpt>
      <trkpt lat="43.44494" lon="6.17379">
        <ele>313</ele>
        <time>2019-03-08T15:08:57Z</time>
      </trkpt>
      <trkpt lat="43.44501" lon="6.17389">
        <ele>311.5</ele>
        <time>2019-03-08T15:09:10Z</time>
      </trkpt>
      <trkpt lat="43.44505" lon="6.174">
        <ele>309.9</ele>
        <time>2019-03-08T15:09:31Z</time>
      </trkpt>
      <trkpt lat="43.44511" lon="6.1741">
        <ele>308.2</ele>
        <time>2019-03-08T15:10:00Z</time>
      </trkpt>
      <trkpt lat="43.44515" lon="6.17421">
        <ele>306.8</ele>
        <time>2019-03-08T15:10:12Z</time>
      </trkpt>
      <trkpt lat="43.44517" lon="6.17435">
        <ele>306.3</ele>
        <time>2019-03-08T15:10:25Z</time>
      </trkpt>
      <trkpt lat="43.44518" lon="6.17447">
        <ele>305.4</ele>
        <time>2019-03-08T15:10:35Z</time>
      </trkpt>
      <trkpt lat="43.44521" lon="6.1746">
        <ele>304.1</ele>
        <time>2019-03-08T15:10:47Z</time>
      </trkpt>
      <trkpt lat="43.44525" lon="6.17473">
        <ele>303.3</ele>
        <time>2019-03-08T15:10:59Z</time>
      </trkpt>
      <trkpt lat="43.44527" lon="6.17485">
        <ele>302.2</ele>
        <time>2019-03-08T15:11:12Z</time>
      </trkpt>
      <trkpt lat="43.44531" lon="6.17496">
        <ele>301.2</ele>
        <time>2019-03-08T15:11:23Z</time>
      </trkpt>
      <trkpt lat="43.44533" lon="6.17509">
        <ele>300</ele>
        <time>2019-03-08T15:11:37Z</time>
      </trkpt>
      <trkpt lat="43.44535" lon="6.17522">
        <ele>299.3</ele>
        <time>2019-03-08T15:11:48Z</time>
      </trkpt>
      <trkpt lat="43.44536" lon="6.17535">
        <ele>298.8</ele>
        <time>2019-03-08T15:11:58Z</time>
      </trkpt>
      <trkpt lat="43.44537" lon="6.17548">
        <ele>298.9</ele>
        <time>2019-03-08T15:12:08Z</time>
      </trkpt>
      <trkpt lat="43.44538" lon="6.17561">
        <ele>298.1</ele>
        <time>2019-03-08T15:12:20Z</time>
      </trkpt>
      <trkpt lat="43.44539" lon="6.17573">
        <ele>297.4</ele>
        <time>2019-03-08T15:12:29Z</time>
      </trkpt>
      <trkpt lat="43.44542" lon="6.17585">
        <ele>296.6</ele>
        <time>2019-03-08T15:12:41Z</time>
      </trkpt>
      <trkpt lat="43.44545" lon="6.17597">
        <ele>295.1</ele>
        <time>2019-03-08T15:12:52Z</time>
      </trkpt>
      <trkpt lat="43.44547" lon="6.17611">
        <ele>293.7</ele>
        <time>2019-03-08T15:13:05Z</time>
      </trkpt>
      <trkpt lat="43.4455" lon="6.17622">
        <ele>292.3</ele>
        <time>2019-03-08T15:13:17Z</time>
      </trkpt>
      <trkpt lat="43.44552" lon="6.17635">
        <ele>291</ele>
        <time>2019-03-08T15:13:29Z</time>
      </trkpt>
      <trkpt lat="43.44556" lon="6.17647">
        <ele>289.4</ele>
        <time>2019-03-08T15:13:41Z</time>
      </trkpt>
      <trkpt lat="43.44557" lon="6.17659">
        <ele>288</ele>
        <time>2019-03-08T15:13:53Z</time>
      </trkpt>
      <trkpt lat="43.44559" lon="6.17672">
        <ele>286.3</ele>
        <time>2019-03-08T15:14:07Z</time>
      </trkpt>
      <trkpt lat="43.44562" lon="6.17685">
        <ele>284.6</ele>
        <time>2019-03-08T15:14:20Z</time>
      </trkpt>
      <trkpt lat="43.44567" lon="6.17696">
        <ele>282.6</ele>
        <time>2019-03-08T15:14:36Z</time>
      </trkpt>
      <trkpt lat="43.44574" lon="6.17705">
        <ele>280.6</ele>
        <time>2019-03-08T15:14:53Z</time>
      </trkpt>
      <trkpt lat="43.4458" lon="6.17713">
        <ele>278.1</ele>
        <time>2019-03-08T15:15:11Z</time>
      </trkpt>
      <trkpt lat="43.44589" lon="6.17716">
        <ele>275.5</ele>
        <time>2019-03-08T15:15:30Z</time>
      </trkpt>
      <trkpt lat="43.44597" lon="6.17723">
        <ele>273.2</ele>
        <time>2019-03-08T15:15:45Z</time>
      </trkpt>
      <trkpt lat="43.44605" lon="6.17729">
        <ele>271.6</ele>
        <time>2019-03-08T15:16:01Z</time>
      </trkpt>
      <trkpt lat="43.44614" lon="6.17733">
        <ele>269.6</ele>
        <time>2019-03-08T15:16:16Z</time>
      </trkpt>
      <trkpt lat="43.44622" lon="6.1774">
        <ele>268.2</ele>
        <time>2019-03-08T15:16:29Z</time>
      </trkpt>
      <trkpt lat="43.4463" lon="6.17746">
        <ele>266.6</ele>
        <time>2019-03-08T15:16:45Z</time>
      </trkpt>
      <trkpt lat="43.44639" lon="6.17752">
        <ele>266.4</ele>
        <time>2019-03-08T15:16:56Z</time>
      </trkpt>
      <trkpt lat="43.44648" lon="6.17757">
        <ele>264.9</ele>
        <time>2019-03-08T15:17:07Z</time>
      </trkpt>
      <trkpt lat="43.44658" lon="6.1776">
        <ele>263.7</ele>
        <time>2019-03-08T15:17:17Z</time>
      </trkpt>
      <trkpt lat="43.44667" lon="6.17762">
        <ele>262.7</ele>
        <time>2019-03-08T15:17:27Z</time>
      </trkpt>
      <trkpt lat="43.44675" lon="6.17755">
        <ele>262.2</ele>
        <time>2019-03-08T15:17:38Z</time>
      </trkpt>
      <trkpt lat="43.44681" lon="6.17746">
        <ele>261.6</ele>
        <time>2019-03-08T15:17:48Z</time>
      </trkpt>
      <trkpt lat="43.44685" lon="6.17735">
        <ele>260.6</ele>
        <time>2019-03-08T15:18:01Z</time>
      </trkpt>
      <trkpt lat="43.44689" lon="6.17723">
        <ele>259.9</ele>
        <time>2019-03-08T15:18:11Z</time>
      </trkpt>
      <trkpt lat="43.44693" lon="6.17711">
        <ele>258.3</ele>
        <time>2019-03-08T15:18:24Z</time>
      </trkpt>
      <trkpt lat="43.44697" lon="6.17698">
        <ele>256</ele>
        <time>2019-03-08T15:18:35Z</time>
      </trkpt>
      <trkpt lat="43.44703" lon="6.17686">
        <ele>255.4</ele>
        <time>2019-03-08T15:18:48Z</time>
      </trkpt>
      <trkpt lat="43.44705" lon="6.17674">
        <ele>253.9</ele>
        <time>2019-03-08T15:18:59Z</time>
      </trkpt>
      <trkpt lat="43.44708" lon="6.17662">
        <ele>251.9</ele>
        <time>2019-03-08T15:19:11Z</time>
      </trkpt>
      <trkpt lat="43.44712" lon="6.1765">
        <ele>250.3</ele>
        <time>2019-03-08T15:19:21Z</time>
      </trkpt>
      <trkpt lat="43.44713" lon="6.17638">
        <ele>248.6</ele>
        <time>2019-03-08T15:19:32Z</time>
      </trkpt>
      <trkpt lat="43.44716" lon="6.17626">
        <ele>247.2</ele>
        <time>2019-03-08T15:19:43Z</time>
      </trkpt>
      <trkpt lat="43.44718" lon="6.17613">
        <ele>245.9</ele>
        <time>2019-03-08T15:19:58Z</time>
      </trkpt>
      <trkpt lat="43.4472" lon="6.17601">
        <ele>243.6</ele>
        <time>2019-03-08T15:20:18Z</time>
      </trkpt>
      <trkpt lat="43.44727" lon="6.17591">
        <ele>241</ele>
        <time>2019-03-08T15:20:36Z</time>
      </trkpt>
      <trkpt lat="43.44732" lon="6.17581">
        <ele>238.8</ele>
        <time>2019-03-08T15:20:49Z</time>
      </trkpt>
      <trkpt lat="43.44739" lon="6.17571">
        <ele>236.5</ele>
        <time>2019-03-08T15:21:05Z</time>
      </trkpt>
      <trkpt lat="43.44745" lon="6.17561">
        <ele>234.8</ele>
        <time>2019-03-08T15:21:17Z</time>
      </trkpt>
      <trkpt lat="43.44751" lon="6.17551">
        <ele>233.8</ele>
        <time>2019-03-08T15:21:30Z</time>
      </trkpt>
      <trkpt lat="43.4476" lon="6.17548">
        <ele>232.1</ele>
        <time>2019-03-08T15:23:28Z</time>
      </trkpt>
      <trkpt lat="43.44767" lon="6.1754">
        <ele>231.9</ele>
        <time>2019-03-08T15:23:47Z</time>
      </trkpt>
      <trkpt lat="43.44775" lon="6.17533">
        <ele>231</ele>
        <time>2019-03-08T15:24:02Z</time>
      </trkpt>
      <trkpt lat="43.44782" lon="6.17525">
        <ele>229.9</ele>
        <time>2019-03-08T15:24:12Z</time>
      </trkpt>
      <trkpt lat="43.44788" lon="6.17515">
        <ele>227.9</ele>
        <time>2019-03-08T15:24:26Z</time>
      </trkpt>
      <trkpt lat="43.4479" lon="6.17502">
        <ele>227.1</ele>
        <time>2019-03-08T15:24:38Z</time>
      </trkpt>
      <trkpt lat="43.44792" lon="6.17489">
        <ele>226.7</ele>
        <time>2019-03-08T15:24:49Z</time>
      </trkpt>
      <trkpt lat="43.44795" lon="6.17475">
        <ele>226.5</ele>
        <time>2019-03-08T15:25:01Z</time>
      </trkpt>
      <trkpt lat="43.44798" lon="6.17462">
        <ele>225.9</ele>
        <time>2019-03-08T15:25:11Z</time>
      </trkpt>
      <trkpt lat="43.44799" lon="6.1745">
        <ele>225</ele>
        <time>2019-03-08T15:25:24Z</time>
      </trkpt>
      <trkpt lat="43.44801" lon="6.17437">
        <ele>223.9</ele>
        <time>2019-03-08T15:25:37Z</time>
      </trkpt>
      <trkpt lat="43.44802" lon="6.17425">
        <ele>222.3</ele>
        <time>2019-03-08T15:25:48Z</time>
      </trkpt>
      <trkpt lat="43.44802" lon="6.17412">
        <ele>221</ele>
        <time>2019-03-08T15:25:58Z</time>
      </trkpt>
      <trkpt lat="43.44802" lon="6.17398">
        <ele>220.9</ele>
        <time>2019-03-08T15:26:10Z</time>
      </trkpt>
      <trkpt lat="43.44801" lon="6.17385">
        <ele>220.2</ele>
        <time>2019-03-08T15:26:23Z</time>
      </trkpt>
      <trkpt lat="43.448" lon="6.17371">
        <ele>218.5</ele>
        <time>2019-03-08T15:26:38Z</time>
      </trkpt>
      <trkpt lat="43.44809" lon="6.17372">
        <ele>218</ele>
        <time>2019-03-08T15:27:14Z</time>
      </trkpt>
      <trkpt lat="43.44817" lon="6.17379">
        <ele>217.7</ele>
        <time>2019-03-08T15:27:24Z</time>
      </trkpt>
      <trkpt lat="43.44824" lon="6.17389">
        <ele>217.6</ele>
        <time>2019-03-08T15:27:37Z</time>
      </trkpt>
      <trkpt lat="43.44828" lon="6.17401">
        <ele>216.7</ele>
        <time>2019-03-08T15:27:56Z</time>
      </trkpt>
      <trkpt lat="43.44831" lon="6.17413">
        <ele>216.1</ele>
        <time>2019-03-08T15:28:08Z</time>
      </trkpt>
      <trkpt lat="43.44835" lon="6.17426">
        <ele>215.5</ele>
        <time>2019-03-08T15:28:18Z</time>
      </trkpt>
      <trkpt lat="43.44839" lon="6.17438">
        <ele>215.5</ele>
        <time>2019-03-08T15:28:27Z</time>
      </trkpt>
      <trkpt lat="43.44841" lon="6.17451">
        <ele>215.6</ele>
        <time>2019-03-08T15:28:37Z</time>
      </trkpt>
      <trkpt lat="43.44842" lon="6.17464">
        <ele>216</ele>
        <time>2019-03-08T15:28:47Z</time>
      </trkpt>
      <trkpt lat="43.44847" lon="6.17475">
        <ele>215.2</ele>
        <time>2019-03-08T15:28:56Z</time>
      </trkpt>
      <trkpt lat="43.44853" lon="6.17484">
        <ele>214.8</ele>
        <time>2019-03-08T15:29:05Z</time>
      </trkpt>
      <trkpt lat="43.44863" lon="6.17485">
        <ele>213.3</ele>
        <time>2019-03-08T15:29:17Z</time>
      </trkpt>
      <trkpt lat="43.44867" lon="6.17472">
        <ele>212.1</ele>
        <time>2019-03-08T15:29:30Z</time>
      </trkpt>
      <trkpt lat="43.44871" lon="6.17461">
        <ele>211.4</ele>
        <time>2019-03-08T15:29:38Z</time>
      </trkpt>
      <trkpt lat="43.44877" lon="6.1745">
        <ele>211.3</ele>
        <time>2019-03-08T15:29:47Z</time>
      </trkpt>
      <trkpt lat="43.44882" lon="6.17438">
        <ele>210.6</ele>
        <time>2019-03-08T15:29:57Z</time>
      </trkpt>
      <trkpt lat="43.4489" lon="6.17431">
        <ele>210</ele>
        <time>2019-03-08T15:30:07Z</time>
      </trkpt>
      <trkpt lat="43.44898" lon="6.17426">
        <ele>209.5</ele>
        <time>2019-03-08T15:30:17Z</time>
      </trkpt>
      <trkpt lat="43.44906" lon="6.17418">
        <ele>208.9</ele>
        <time>2019-03-08T15:30:27Z</time>
      </trkpt>
      <trkpt lat="43.44914" lon="6.17411">
        <ele>208.8</ele>
        <time>2019-03-08T15:30:40Z</time>
      </trkpt>
      <trkpt lat="43.44922" lon="6.17415">
        <ele>208.4</ele>
        <time>2019-03-08T15:30:50Z</time>
      </trkpt>
      <trkpt lat="43.4493" lon="6.17422">
        <ele>208.1</ele>
        <time>2019-03-08T15:30:58Z</time>
      </trkpt>
      <trkpt lat="43.44939" lon="6.17427">
        <ele>208.1</ele>
        <time>2019-03-08T15:31:06Z</time>
      </trkpt>
      <trkpt lat="43.44948" lon="6.17431">
        <ele>207.6</ele>
        <time>2019-03-08T15:31:15Z</time>
      </trkpt>
      <trkpt lat="43.44957" lon="6.17436">
        <ele>207.6</ele>
        <time>2019-03-08T15:31:23Z</time>
      </trkpt>
      <trkpt lat="43.44967" lon="6.17439">
        <ele>207.2</ele>
        <time>2019-03-08T15:31:33Z</time>
      </trkpt>
      <trkpt lat="43.44976" lon="6.17444">
        <ele>207</ele>
        <time>2019-03-08T15:31:41Z</time>
      </trkpt>
      <trkpt lat="43.44985" lon="6.1745">
        <ele>207.6</ele>
        <time>2019-03-08T15:31:52Z</time>
      </trkpt>
      <trkpt lat="43.44994" lon="6.17454">
        <ele>208.7</ele>
        <time>2019-03-08T15:32:03Z</time>
      </trkpt>
      <trkpt lat="43.45003" lon="6.17456">
        <ele>208.8</ele>
        <time>2019-03-08T15:32:12Z</time>
      </trkpt>
      <trkpt lat="43.45012" lon="6.17459">
        <ele>207.5</ele>
        <time>2019-03-08T15:32:30Z</time>
      </trkpt>
      <trkpt lat="43.45022" lon="6.17459">
        <ele>206.8</ele>
        <time>2019-03-08T15:32:51Z</time>
      </trkpt>
      <trkpt lat="43.45032" lon="6.17459">
        <ele>206.3</ele>
        <time>2019-03-08T15:33:07Z</time>
      </trkpt>
      <trkpt lat="43.45041" lon="6.1746">
        <ele>205.6</ele>
        <time>2019-03-08T15:33:18Z</time>
      </trkpt>
      <trkpt lat="43.4505" lon="6.17463">
        <ele>204.7</ele>
        <time>2019-03-08T15:33:27Z</time>
      </trkpt>
      <trkpt lat="43.45058" lon="6.1747">
        <ele>204</ele>
        <time>2019-03-08T15:33:37Z</time>
      </trkpt>
      <trkpt lat="43.45065" lon="6.17479">
        <ele>203.4</ele>
        <time>2019-03-08T15:33:49Z</time>
      </trkpt>
      <trkpt lat="43.45074" lon="6.17485">
        <ele>203.1</ele>
        <time>2019-03-08T15:33:58Z</time>
      </trkpt>
      <trkpt lat="43.45082" lon="6.17492">
        <ele>202.5</ele>
        <time>2019-03-08T15:34:10Z</time>
      </trkpt>
      <trkpt lat="43.45087" lon="6.17503">
        <ele>202.5</ele>
        <time>2019-03-08T15:34:17Z</time>
      </trkpt>
      <trkpt lat="43.45091" lon="6.17515">
        <ele>202.7</ele>
        <time>2019-03-08T15:34:25Z</time>
      </trkpt>
      <trkpt lat="43.45097" lon="6.17527">
        <ele>202.8</ele>
        <time>2019-03-08T15:34:36Z</time>
      </trkpt>
      <trkpt lat="43.45101" lon="6.17539">
        <ele>201.8</ele>
        <time>2019-03-08T15:34:46Z</time>
      </trkpt>
      <trkpt lat="43.45106" lon="6.1755">
        <ele>201.6</ele>
        <time>2019-03-08T15:34:54Z</time>
      </trkpt>
      <trkpt lat="43.45109" lon="6.17562">
        <ele>199.8</ele>
        <time>2019-03-08T15:35:07Z</time>
      </trkpt>
      <trkpt lat="43.45113" lon="6.17574">
        <ele>199</ele>
        <time>2019-03-08T15:35:24Z</time>
      </trkpt>
      <trkpt lat="43.45119" lon="6.17583">
        <ele>198.2</ele>
        <time>2019-03-08T15:35:35Z</time>
      </trkpt>
      <trkpt lat="43.45123" lon="6.17594">
        <ele>197.6</ele>
        <time>2019-03-08T15:35:46Z</time>
      </trkpt>
      <trkpt lat="43.4513" lon="6.17604">
        <ele>197.3</ele>
        <time>2019-03-08T15:35:59Z</time>
      </trkpt>
      <trkpt lat="43.45137" lon="6.17614">
        <ele>196.9</ele>
        <time>2019-03-08T15:36:09Z</time>
      </trkpt>
      <trkpt lat="43.45144" lon="6.17624">
        <ele>196.4</ele>
        <time>2019-03-08T15:36:19Z</time>
      </trkpt>
      <trkpt lat="43.4515" lon="6.17633">
        <ele>196.2</ele>
        <time>2019-03-08T15:36:29Z</time>
      </trkpt>
      <trkpt lat="43.45157" lon="6.17643">
        <ele>196.2</ele>
        <time>2019-03-08T15:36:38Z</time>
      </trkpt>
      <trkpt lat="43.45163" lon="6.17652">
        <ele>196.2</ele>
        <time>2019-03-08T15:36:48Z</time>
      </trkpt>
      <trkpt lat="43.45167" lon="6.17664">
        <ele>195.5</ele>
        <time>2019-03-08T15:36:59Z</time>
      </trkpt>
      <trkpt lat="43.4517" lon="6.17677">
        <ele>194.7</ele>
        <time>2019-03-08T15:37:11Z</time>
      </trkpt>
      <trkpt lat="43.45174" lon="6.17688">
        <ele>193.4</ele>
        <time>2019-03-08T15:37:26Z</time>
      </trkpt>
      <trkpt lat="43.45183" lon="6.1769">
        <ele>193.5</ele>
        <time>2019-03-08T15:39:08Z</time>
      </trkpt>
      <trkpt lat="43.45191" lon="6.17684">
        <ele>193.6</ele>
        <time>2019-03-08T15:39:22Z</time>
      </trkpt>
      <trkpt lat="43.45198" lon="6.17675">
        <ele>194.8</ele>
        <time>2019-03-08T15:39:40Z</time>
      </trkpt>
      <trkpt lat="43.45204" lon="6.17666">
        <ele>195.5</ele>
        <time>2019-03-08T15:39:53Z</time>
      </trkpt>
      <trkpt lat="43.4521" lon="6.17655">
        <ele>195.9</ele>
        <time>2019-03-08T15:40:05Z</time>
      </trkpt>
      <trkpt lat="43.45216" lon="6.17646">
        <ele>195.9</ele>
        <time>2019-03-08T15:40:16Z</time>
      </trkpt>
      <trkpt lat="43.45224" lon="6.17638">
        <ele>196.2</ele>
        <time>2019-03-08T15:40:27Z</time>
      </trkpt>
      <trkpt lat="43.45234" lon="6.17633">
        <ele>196.7</ele>
        <time>2019-03-08T15:40:36Z</time>
      </trkpt>
      <trkpt lat="43.45243" lon="6.17628">
        <ele>196.6</ele>
        <time>2019-03-08T15:40:45Z</time>
      </trkpt>
      <trkpt lat="43.45251" lon="6.17624">
        <ele>195.8</ele>
        <time>2019-03-08T15:40:56Z</time>
      </trkpt>
      <trkpt lat="43.4526" lon="6.17618">
        <ele>195.2</ele>
        <time>2019-03-08T15:41:06Z</time>
      </trkpt>
      <trkpt lat="43.45267" lon="6.1761">
        <ele>194.7</ele>
        <time>2019-03-08T15:41:15Z</time>
      </trkpt>
      <trkpt lat="43.45274" lon="6.176">
        <ele>193.9</ele>
        <time>2019-03-08T15:41:25Z</time>
      </trkpt>
      <trkpt lat="43.45282" lon="6.17594">
        <ele>193.1</ele>
        <time>2019-03-08T15:41:32Z</time>
      </trkpt>
      <trkpt lat="43.45289" lon="6.17585">
        <ele>192.1</ele>
        <time>2019-03-08T15:41:45Z</time>
      </trkpt>
      <trkpt lat="43.45299" lon="6.17579">
        <ele>191.7</ele>
        <time>2019-03-08T15:41:56Z</time>
      </trkpt>
      <trkpt lat="43.4531" lon="6.17575">
        <ele>191.3</ele>
        <time>2019-03-08T15:42:07Z</time>
      </trkpt>
      <trkpt lat="43.45319" lon="6.17571">
        <ele>191.1</ele>
        <time>2019-03-08T15:42:18Z</time>
      </trkpt>
      <trkpt lat="43.45328" lon="6.1757">
        <ele>190.9</ele>
        <time>2019-03-08T15:42:24Z</time>
      </trkpt>
      <trkpt lat="43.45338" lon="6.1757">
        <ele>190.9</ele>
        <time>2019-03-08T15:42:33Z</time>
      </trkpt>
      <trkpt lat="43.45347" lon="6.17571">
        <ele>190</ele>
        <time>2019-03-08T15:42:46Z</time>
      </trkpt>
      <trkpt lat="43.45357" lon="6.17571">
        <ele>189.1</ele>
        <time>2019-03-08T15:42:53Z</time>
      </trkpt>
      <trkpt lat="43.45367" lon="6.17572">
        <ele>188</ele>
        <time>2019-03-08T15:43:01Z</time>
      </trkpt>
      <trkpt lat="43.45376" lon="6.17578">
        <ele>187.2</ele>
        <time>2019-03-08T15:43:09Z</time>
      </trkpt>
      <trkpt lat="43.45386" lon="6.1758">
        <ele>186.4</ele>
        <time>2019-03-08T15:43:19Z</time>
      </trkpt>
      <trkpt lat="43.45395" lon="6.17585">
        <ele>186.3</ele>
        <time>2019-03-08T15:43:25Z</time>
      </trkpt>
      <trkpt lat="43.45405" lon="6.17589">
        <ele>185.9</ele>
        <time>2019-03-08T15:43:36Z</time>
      </trkpt>
      <trkpt lat="43.45414" lon="6.17592">
        <ele>185.7</ele>
        <time>2019-03-08T15:43:42Z</time>
      </trkpt>
      <trkpt lat="43.45422" lon="6.17595">
        <ele>185.2</ele>
        <time>2019-03-08T15:43:51Z</time>
      </trkpt>
      <trkpt lat="43.45431" lon="6.176">
        <ele>184.2</ele>
        <time>2019-03-08T15:43:59Z</time>
      </trkpt>
      <trkpt lat="43.45439" lon="6.17608">
        <ele>183.5</ele>
        <time>2019-03-08T15:44:06Z</time>
      </trkpt>
      <trkpt lat="43.45448" lon="6.17615">
        <ele>182.3</ele>
        <time>2019-03-08T15:44:13Z</time>
      </trkpt>
      <trkpt lat="43.45457" lon="6.1762">
        <ele>180.7</ele>
        <time>2019-03-08T15:44:23Z</time>
      </trkpt>
      <trkpt lat="43.45465" lon="6.17628">
        <ele>179.8</ele>
        <time>2019-03-08T15:44:33Z</time>
      </trkpt>
      <trkpt lat="43.45474" lon="6.1763">
        <ele>178.6</ele>
        <time>2019-03-08T15:44:43Z</time>
      </trkpt>
      <trkpt lat="43.45484" lon="6.17631">
        <ele>177.8</ele>
        <time>2019-03-08T15:44:54Z</time>
      </trkpt>
      <trkpt lat="43.45493" lon="6.17634">
        <ele>176.6</ele>
        <time>2019-03-08T15:45:05Z</time>
      </trkpt>
      <trkpt lat="43.45502" lon="6.17636">
        <ele>175.5</ele>
        <time>2019-03-08T15:45:14Z</time>
      </trkpt>
      <trkpt lat="43.45511" lon="6.17641">
        <ele>174.8</ele>
        <time>2019-03-08T15:45:21Z</time>
      </trkpt>
      <trkpt lat="43.4552" lon="6.17647">
        <ele>174.3</ele>
        <time>2019-03-08T15:45:31Z</time>
      </trkpt>
      <trkpt lat="43.45528" lon="6.17652">
        <ele>173.9</ele>
        <time>2019-03-08T15:45:40Z</time>
      </trkpt>
      <trkpt lat="43.45538" lon="6.17656">
        <ele>173.7</ele>
        <time>2019-03-08T15:45:49Z</time>
      </trkpt>
      <trkpt lat="43.45548" lon="6.17657">
        <ele>173.3</ele>
        <time>2019-03-08T15:46:00Z</time>
      </trkpt>
      <trkpt lat="43.45557" lon="6.17657">
        <ele>172.9</ele>
        <time>2019-03-08T15:46:09Z</time>
      </trkpt>
      <trkpt lat="43.45566" lon="6.17661">
        <ele>172.8</ele>
        <time>2019-03-08T15:46:19Z</time>
      </trkpt>
      <trkpt lat="43.45574" lon="6.17666">
        <ele>171.8</ele>
        <time>2019-03-08T15:46:39Z</time>
      </trkpt>
      <trkpt lat="43.45581" lon="6.17657">
        <ele>171.6</ele>
        <time>2019-03-08T15:47:00Z</time>
      </trkpt>
      <trkpt lat="43.45587" lon="6.17647">
        <ele>171.7</ele>
        <time>2019-03-08T15:47:12Z</time>
      </trkpt>
      <trkpt lat="43.45594" lon="6.17637">
        <ele>171.2</ele>
        <time>2019-03-08T15:47:21Z</time>
      </trkpt>
      <trkpt lat="43.45602" lon="6.1763">
        <ele>171.9</ele>
        <time>2019-03-08T15:47:32Z</time>
      </trkpt>
      <trkpt lat="43.45609" lon="6.17622">
        <ele>171.1</ele>
        <time>2019-03-08T15:47:43Z</time>
      </trkpt>
      <trkpt lat="43.45617" lon="6.17612">
        <ele>169.8</ele>
        <time>2019-03-08T15:47:53Z</time>
      </trkpt>
      <trkpt lat="43.45623" lon="6.17602">
        <ele>169</ele>
        <time>2019-03-08T15:48:02Z</time>
      </trkpt>
      <trkpt lat="43.45632" lon="6.17599">
        <ele>168.2</ele>
        <time>2019-03-08T15:48:10Z</time>
      </trkpt>
      <trkpt lat="43.45642" lon="6.17594">
        <ele>167.9</ele>
        <time>2019-03-08T15:48:20Z</time>
      </trkpt>
      <trkpt lat="43.4565" lon="6.1759">
        <ele>167.7</ele>
        <time>2019-03-08T15:48:27Z</time>
      </trkpt>
      <trkpt lat="43.4566" lon="6.17587">
        <ele>167.1</ele>
        <time>2019-03-08T15:48:36Z</time>
      </trkpt>
      <trkpt lat="43.45669" lon="6.17588">
        <ele>166.9</ele>
        <time>2019-03-08T15:48:43Z</time>
      </trkpt>
      <trkpt lat="43.45678" lon="6.17584">
        <ele>166.4</ele>
        <time>2019-03-08T15:48:53Z</time>
      </trkpt>
      <trkpt lat="43.45685" lon="6.17575">
        <ele>166.1</ele>
        <time>2019-03-08T15:49:03Z</time>
      </trkpt>
      <trkpt lat="43.45693" lon="6.17567">
        <ele>165.4</ele>
        <time>2019-03-08T15:49:13Z</time>
      </trkpt>
      <trkpt lat="43.457" lon="6.17558">
        <ele>164.9</ele>
        <time>2019-03-08T15:49:22Z</time>
      </trkpt>
      <trkpt lat="43.45709" lon="6.17554">
        <ele>165</ele>
        <time>2019-03-08T15:49:29Z</time>
      </trkpt>
      <trkpt lat="43.45718" lon="6.17549">
        <ele>164.2</ele>
        <time>2019-03-08T15:49:39Z</time>
      </trkpt>
      <trkpt lat="43.45727" lon="6.17543">
        <ele>163.5</ele>
        <time>2019-03-08T15:49:51Z</time>
      </trkpt>
      <trkpt lat="43.45736" lon="6.17538">
        <ele>163.5</ele>
        <time>2019-03-08T15:50:00Z</time>
      </trkpt>
      <trkpt lat="43.45745" lon="6.17535">
        <ele>162.8</ele>
        <time>2019-03-08T15:50:10Z</time>
      </trkpt>
      <trkpt lat="43.45755" lon="6.17535">
        <ele>162.7</ele>
        <time>2019-03-08T15:50:16Z</time>
      </trkpt>
      <trkpt lat="43.45764" lon="6.1754">
        <ele>162.2</ele>
        <time>2019-03-08T15:50:26Z</time>
      </trkpt>
      <trkpt lat="43.45773" lon="6.17544">
        <ele>161.6</ele>
        <time>2019-03-08T15:50:33Z</time>
      </trkpt>
      <trkpt lat="43.45783" lon="6.17546">
        <ele>161.1</ele>
        <time>2019-03-08T15:50:43Z</time>
      </trkpt>
      <trkpt lat="43.45792" lon="6.17549">
        <ele>160.1</ele>
        <time>2019-03-08T15:50:53Z</time>
      </trkpt>
      <trkpt lat="43.45801" lon="6.17552">
        <ele>159.2</ele>
        <time>2019-03-08T15:51:00Z</time>
      </trkpt>
      <trkpt lat="43.45811" lon="6.17554">
        <ele>158.5</ele>
        <time>2019-03-08T15:51:10Z</time>
      </trkpt>
      <trkpt lat="43.45819" lon="6.17557">
        <ele>158</ele>
        <time>2019-03-08T15:51:17Z</time>
      </trkpt>
      <trkpt lat="43.45828" lon="6.17559">
        <ele>156.9</ele>
        <time>2019-03-08T15:51:27Z</time>
      </trkpt>
      <trkpt lat="43.45838" lon="6.17561">
        <ele>155.8</ele>
        <time>2019-03-08T15:51:37Z</time>
      </trkpt>
      <trkpt lat="43.45848" lon="6.17561">
        <ele>154.9</ele>
        <time>2019-03-08T15:51:45Z</time>
      </trkpt>
      <trkpt lat="43.45856" lon="6.17555">
        <ele>153.3</ele>
        <time>2019-03-08T15:51:56Z</time>
      </trkpt>
      <trkpt lat="43.45862" lon="6.17545">
        <ele>151.9</ele>
        <time>2019-03-08T15:52:05Z</time>
      </trkpt>
      <trkpt lat="43.45867" lon="6.17535">
        <ele>150.9</ele>
        <time>2019-03-08T15:52:16Z</time>
      </trkpt>
      <trkpt lat="43.45873" lon="6.17525">
        <ele>150.1</ele>
        <time>2019-03-08T15:52:23Z</time>
      </trkpt>
      <trkpt lat="43.4588" lon="6.17516">
        <ele>149</ele>
        <time>2019-03-08T15:52:34Z</time>
      </trkpt>
      <trkpt lat="43.4589" lon="6.17512">
        <ele>147.8</ele>
        <time>2019-03-08T15:52:44Z</time>
      </trkpt>
      <trkpt lat="43.45897" lon="6.17505">
        <ele>146.6</ele>
        <time>2019-03-08T15:52:55Z</time>
      </trkpt>
      <trkpt lat="43.45906" lon="6.175">
        <ele>145.9</ele>
        <time>2019-03-08T15:53:02Z</time>
      </trkpt>
      <trkpt lat="43.45914" lon="6.17491">
        <ele>145.5</ele>
        <time>2019-03-08T15:53:12Z</time>
      </trkpt>
      <trkpt lat="43.4592" lon="6.17482">
        <ele>144.7</ele>
        <time>2019-03-08T15:53:21Z</time>
      </trkpt>
      <trkpt lat="43.45926" lon="6.17472">
        <ele>144.6</ele>
        <time>2019-03-08T15:53:29Z</time>
      </trkpt>
      <trkpt lat="43.45933" lon="6.17463">
        <ele>144.1</ele>
        <time>2019-03-08T15:53:40Z</time>
      </trkpt>
      <trkpt lat="43.45939" lon="6.17453">
        <ele>143.9</ele>
        <time>2019-03-08T15:53:50Z</time>
      </trkpt>
      <trkpt lat="43.45946" lon="6.17443">
        <ele>143.6</ele>
        <time>2019-03-08T15:53:58Z</time>
      </trkpt>
      <trkpt lat="43.45952" lon="6.17433">
        <ele>143.2</ele>
        <time>2019-03-08T15:54:07Z</time>
      </trkpt>
      <trkpt lat="43.45958" lon="6.17423">
        <ele>143.2</ele>
        <time>2019-03-08T15:54:13Z</time>
      </trkpt>
      <trkpt lat="43.45964" lon="6.17413">
        <ele>142.8</ele>
        <time>2019-03-08T15:54:24Z</time>
      </trkpt>
      <trkpt lat="43.4597" lon="6.17402">
        <ele>142.8</ele>
        <time>2019-03-08T15:54:33Z</time>
      </trkpt>
      <trkpt lat="43.45977" lon="6.17391">
        <ele>142.8</ele>
        <time>2019-03-08T15:54:41Z</time>
      </trkpt>
      <trkpt lat="43.45983" lon="6.17382">
        <ele>142.4</ele>
        <time>2019-03-08T15:54:51Z</time>
      </trkpt>
      <trkpt lat="43.45989" lon="6.17372">
        <ele>142.2</ele>
        <time>2019-03-08T15:54:59Z</time>
      </trkpt>
      <trkpt lat="43.45994" lon="6.1736">
        <ele>141.7</ele>
        <time>2019-03-08T15:55:08Z</time>
      </trkpt>
      <trkpt lat="43.46" lon="6.1735">
        <ele>141.4</ele>
        <time>2019-03-08T15:55:16Z</time>
      </trkpt>
      <trkpt lat="43.46004" lon="6.17337">
        <ele>141.1</ele>
        <time>2019-03-08T15:55:27Z</time>
      </trkpt>
      <trkpt lat="43.46008" lon="6.17325">
        <ele>141.1</ele>
        <time>2019-03-08T15:55:33Z</time>
      </trkpt>
      <trkpt lat="43.4601" lon="6.17312">
        <ele>140.9</ele>
        <time>2019-03-08T15:55:43Z</time>
      </trkpt>
      <trkpt lat="43.46014" lon="6.173">
        <ele>140.7</ele>
        <time>2019-03-08T15:55:50Z</time>
      </trkpt>
      <trkpt lat="43.46016" lon="6.17287">
        <ele>140.6</ele>
        <time>2019-03-08T15:55:56Z</time>
      </trkpt>
      <trkpt lat="43.46018" lon="6.17275">
        <ele>140.1</ele>
        <time>2019-03-08T15:56:06Z</time>
      </trkpt>
      <trkpt lat="43.4602" lon="6.17263">
        <ele>140</ele>
        <time>2019-03-08T15:56:11Z</time>
      </trkpt>
      <trkpt lat="43.4602" lon="6.1725">
        <ele>139.6</ele>
        <time>2019-03-08T15:56:21Z</time>
      </trkpt>
      <trkpt lat="43.46023" lon="6.17238">
        <ele>139.5</ele>
        <time>2019-03-08T15:56:32Z</time>
      </trkpt>
      <trkpt lat="43.4602" lon="6.17226">
        <ele>139.4</ele>
        <time>2019-03-08T15:56:52Z</time>
      </trkpt>
      <trkpt lat="43.46023" lon="6.17214">
        <ele>139.6</ele>
        <time>2019-03-08T15:57:08Z</time>
      </trkpt>
      <trkpt lat="43.46027" lon="6.17202">
        <ele>138.8</ele>
        <time>2019-03-08T15:57:20Z</time>
      </trkpt>
      <trkpt lat="43.46031" lon="6.1719">
        <ele>138.7</ele>
        <time>2019-03-08T15:57:31Z</time>
      </trkpt>
      <trkpt lat="43.46032" lon="6.17178">
        <ele>138.6</ele>
        <time>2019-03-08T15:57:40Z</time>
      </trkpt>
      <trkpt lat="43.46035" lon="6.17165">
        <ele>138.4</ele>
        <time>2019-03-08T15:57:47Z</time>
      </trkpt>
      <trkpt lat="43.46033" lon="6.17153">
        <ele>138.3</ele>
        <time>2019-03-08T15:57:58Z</time>
      </trkpt>
      <trkpt lat="43.46025" lon="6.17146">
        <ele>138.9</ele>
        <time>2019-03-08T15:58:11Z</time>
      </trkpt>
      <trkpt lat="43.46019" lon="6.17137">
        <ele>139.7</ele>
        <time>2019-03-08T15:58:23Z</time>
      </trkpt>
      <trkpt lat="43.46022" lon="6.17124">
        <ele>140.3</ele>
        <time>2019-03-08T15:58:33Z</time>
      </trkpt>
      <trkpt lat="43.46024" lon="6.17112">
        <ele>140.2</ele>
        <time>2019-03-08T15:58:42Z</time>
      </trkpt>
      <trkpt lat="43.46029" lon="6.171">
        <ele>139.7</ele>
        <time>2019-03-08T15:58:52Z</time>
      </trkpt>
      <trkpt lat="43.46035" lon="6.1709">
        <ele>139.4</ele>
        <time>2019-03-08T15:59:01Z</time>
      </trkpt>
      <trkpt lat="43.46041" lon="6.1708">
        <ele>139.1</ele>
        <time>2019-03-08T15:59:10Z</time>
      </trkpt>
      <trkpt lat="43.46048" lon="6.1707">
        <ele>138.3</ele>
        <time>2019-03-08T15:59:21Z</time>
      </trkpt>
      <trkpt lat="43.46055" lon="6.17061">
        <ele>137.9</ele>
        <time>2019-03-08T15:59:31Z</time>
      </trkpt>
      <trkpt lat="43.46062" lon="6.1705">
        <ele>136.9</ele>
        <time>2019-03-08T15:59:41Z</time>
      </trkpt>
      <trkpt lat="43.46068" lon="6.17041">
        <ele>137.1</ele>
        <time>2019-03-08T15:59:50Z</time>
      </trkpt>
      <trkpt lat="43.46075" lon="6.17032">
        <ele>137.3</ele>
        <time>2019-03-08T15:59:59Z</time>
      </trkpt>
      <trkpt lat="43.4608" lon="6.1702">
        <ele>137</ele>
        <time>2019-03-08T16:00:11Z</time>
      </trkpt>
      <trkpt lat="43.46086" lon="6.1701">
        <ele>136.5</ele>
        <time>2019-03-08T16:00:19Z</time>
      </trkpt>
      <trkpt lat="43.46091" lon="6.17">
        <ele>136.1</ele>
        <time>2019-03-08T16:00:31Z</time>
      </trkpt>
      <trkpt lat="43.46101" lon="6.17">
        <ele>135.6</ele>
        <time>2019-03-08T16:00:43Z</time>
      </trkpt>
      <trkpt lat="43.46106" lon="6.1699">
        <ele>135.2</ele>
        <time>2019-03-08T16:00:55Z</time>
      </trkpt>
      <trkpt lat="43.46113" lon="6.16981">
        <ele>135</ele>
        <time>2019-03-08T16:01:06Z</time>
      </trkpt>
      <trkpt lat="43.4612" lon="6.16972">
        <ele>135.2</ele>
        <time>2019-03-08T16:01:21Z</time>
      </trkpt>
      <trkpt lat="43.46127" lon="6.16963">
        <ele>134.9</ele>
        <time>2019-03-08T16:01:34Z</time>
      </trkpt>
      <trkpt lat="43.46136" lon="6.1696">
        <ele>135</ele>
        <time>2019-03-08T16:01:52Z</time>
      </trkpt>
      <trkpt lat="43.46145" lon="6.16963">
        <ele>134.7</ele>
        <time>2019-03-08T16:02:04Z</time>
      </trkpt>
      <trkpt lat="43.46151" lon="6.1697">
        <ele>134.3</ele>
        <time>2019-03-08T16:04:56Z</time>
      </trkpt>
    </trkseg>
  </trk>
</gpx>